<?xml version="1.0" encoding="UTF-8" standalone="no" ?>
<gpx xmlns="http://www.topografix.com/GPX/1/1" xmlns:xsi="http://www.w3.org/2001/XMLSchema-instance" xsi:schemaLocation="http://www.topografix.com/GPX/1/1 http://www.topografix.com/GPX/1/1/gpx.xsd" version="1.1" creator="VisuGPX - https://www.visugpx.com">
  <metadata>
    <name>LES CAMPAGNES DE MONS</name>
    <desc><![CDATA[Par d\'anciennes carraires, en traversant quelques hameaux, descendez au pied de Mons dans la vallée de la Siagnole.(d\'après topoguides)]]></desc>
  </metadata>
  <wpt lat="43.68876" lon="6.71406">
    <ele>703</ele>
  </wpt>
  <wpt lat="43.69311" lon="6.71994">
    <ele>806</ele>
  </wpt>
  <trk>
    <name><![CDATA[LES CAMPAGNES DE MONS_1]]></name>
    <trkseg>
      <trkpt lat="43.68876" lon="6.71406">
        <ele>703</ele>
        <time>2010-11-22T08:39:33Z</time>
      </trkpt>
      <trkpt lat="43.6886" lon="6.71416">
        <ele>685</ele>
        <time>2010-11-22T08:39:34Z</time>
      </trkpt>
      <trkpt lat="43.68869" lon="6.71411">
        <ele>695</ele>
        <time>2010-11-22T08:39:37Z</time>
      </trkpt>
      <trkpt lat="43.68876" lon="6.71404">
        <ele>702</ele>
        <time>2010-11-22T08:39:47Z</time>
      </trkpt>
      <trkpt lat="43.68965" lon="6.71349">
        <ele>797</ele>
        <time>2010-11-22T08:40:02Z</time>
      </trkpt>
      <trkpt lat="43.68972" lon="6.71342">
        <ele>808</ele>
        <time>2010-11-22T08:40:08Z</time>
      </trkpt>
      <trkpt lat="43.68978" lon="6.71332">
        <ele>813</ele>
        <time>2010-11-22T08:40:35Z</time>
      </trkpt>
      <trkpt lat="43.68978" lon="6.71319">
        <ele>813</ele>
        <time>2010-11-22T08:41:02Z</time>
      </trkpt>
      <trkpt lat="43.6898" lon="6.71331">
        <ele>807</ele>
        <time>2010-11-22T08:42:14Z</time>
      </trkpt>
      <trkpt lat="43.68975" lon="6.71342">
        <ele>807</ele>
        <time>2010-11-22T08:42:36Z</time>
      </trkpt>
      <trkpt lat="43.6897" lon="6.71353">
        <ele>813</ele>
        <time>2010-11-22T08:42:49Z</time>
      </trkpt>
      <trkpt lat="43.68964" lon="6.71362">
        <ele>813</ele>
        <time>2010-11-22T08:43:08Z</time>
      </trkpt>
      <trkpt lat="43.68956" lon="6.71371">
        <ele>813</ele>
        <time>2010-11-22T08:43:18Z</time>
      </trkpt>
      <trkpt lat="43.68962" lon="6.71381">
        <ele>813</ele>
        <time>2010-11-22T08:47:17Z</time>
      </trkpt>
      <trkpt lat="43.68972" lon="6.71387">
        <ele>813</ele>
        <time>2010-11-22T08:47:26Z</time>
      </trkpt>
      <trkpt lat="43.68979" lon="6.71396">
        <ele>813</ele>
        <time>2010-11-22T08:47:38Z</time>
      </trkpt>
      <trkpt lat="43.68985" lon="6.71406">
        <ele>813</ele>
        <time>2010-11-22T08:47:52Z</time>
      </trkpt>
      <trkpt lat="43.68995" lon="6.7141">
        <ele>813</ele>
        <time>2010-11-22T08:48:03Z</time>
      </trkpt>
      <trkpt lat="43.69003" lon="6.71417">
        <ele>813</ele>
        <time>2010-11-22T08:48:16Z</time>
      </trkpt>
      <trkpt lat="43.6901" lon="6.71428">
        <ele>813</ele>
        <time>2010-11-22T08:48:24Z</time>
      </trkpt>
      <trkpt lat="43.69001" lon="6.71431">
        <ele>807</ele>
        <time>2010-11-22T08:48:40Z</time>
      </trkpt>
      <trkpt lat="43.68992" lon="6.71431">
        <ele>807</ele>
        <time>2010-11-22T08:48:46Z</time>
      </trkpt>
      <trkpt lat="43.68985" lon="6.71423">
        <ele>800</ele>
        <time>2010-11-22T08:48:58Z</time>
      </trkpt>
      <trkpt lat="43.68976" lon="6.71418">
        <ele>800</ele>
        <time>2010-11-22T08:49:06Z</time>
      </trkpt>
      <trkpt lat="43.68968" lon="6.71411">
        <ele>800</ele>
        <time>2010-11-22T08:49:17Z</time>
      </trkpt>
      <trkpt lat="43.6896" lon="6.71405">
        <ele>800</ele>
        <time>2010-11-22T08:49:33Z</time>
      </trkpt>
      <trkpt lat="43.68951" lon="6.71404">
        <ele>792</ele>
        <time>2010-11-22T08:49:50Z</time>
      </trkpt>
      <trkpt lat="43.68941" lon="6.71402">
        <ele>792</ele>
        <time>2010-11-22T08:50:10Z</time>
      </trkpt>
      <trkpt lat="43.68933" lon="6.71396">
        <ele>792</ele>
        <time>2010-11-22T08:50:26Z</time>
      </trkpt>
      <trkpt lat="43.68924" lon="6.71395">
        <ele>792</ele>
        <time>2010-11-22T08:50:36Z</time>
      </trkpt>
      <trkpt lat="43.68914" lon="6.71393">
        <ele>792</ele>
        <time>2010-11-22T08:50:48Z</time>
      </trkpt>
      <trkpt lat="43.68908" lon="6.71383">
        <ele>785</ele>
        <time>2010-11-22T08:51:01Z</time>
      </trkpt>
      <trkpt lat="43.68899" lon="6.71383">
        <ele>785</ele>
        <time>2010-11-22T08:51:17Z</time>
      </trkpt>
      <trkpt lat="43.6889" lon="6.71382">
        <ele>785</ele>
        <time>2010-11-22T08:51:41Z</time>
      </trkpt>
      <trkpt lat="43.6888" lon="6.71385">
        <ele>785</ele>
        <time>2010-11-22T08:51:56Z</time>
      </trkpt>
      <trkpt lat="43.68873" lon="6.71376">
        <ele>776</ele>
        <time>2010-11-22T08:52:12Z</time>
      </trkpt>
      <trkpt lat="43.68863" lon="6.71372">
        <ele>776</ele>
        <time>2010-11-22T08:52:27Z</time>
      </trkpt>
      <trkpt lat="43.68854" lon="6.71369">
        <ele>776</ele>
        <time>2010-11-22T08:52:39Z</time>
      </trkpt>
      <trkpt lat="43.68846" lon="6.71363">
        <ele>770</ele>
        <time>2010-11-22T08:52:55Z</time>
      </trkpt>
      <trkpt lat="43.68839" lon="6.71371">
        <ele>770</ele>
        <time>2010-11-22T08:53:25Z</time>
      </trkpt>
      <trkpt lat="43.68836" lon="6.71384">
        <ele>770</ele>
        <time>2010-11-22T08:53:49Z</time>
      </trkpt>
      <trkpt lat="43.68829" lon="6.71392">
        <ele>760</ele>
        <time>2010-11-22T08:54:27Z</time>
      </trkpt>
      <trkpt lat="43.6882" lon="6.71387">
        <ele>760</ele>
        <time>2010-11-22T08:56:26Z</time>
      </trkpt>
      <trkpt lat="43.68824" lon="6.714">
        <ele>760</ele>
        <time>2010-11-22T08:56:47Z</time>
      </trkpt>
      <trkpt lat="43.68815" lon="6.714">
        <ele>760</ele>
        <time>2010-11-22T08:57:01Z</time>
      </trkpt>
      <trkpt lat="43.68807" lon="6.71394">
        <ele>760</ele>
        <time>2010-11-22T08:57:16Z</time>
      </trkpt>
      <trkpt lat="43.68802" lon="6.71384">
        <ele>760</ele>
        <time>2010-11-22T08:57:30Z</time>
      </trkpt>
      <trkpt lat="43.68804" lon="6.71371">
        <ele>760</ele>
        <time>2010-11-22T08:57:43Z</time>
      </trkpt>
      <trkpt lat="43.68801" lon="6.7136">
        <ele>760</ele>
        <time>2010-11-22T08:57:59Z</time>
      </trkpt>
      <trkpt lat="43.68792" lon="6.71355">
        <ele>753</ele>
        <time>2010-11-22T08:58:46Z</time>
      </trkpt>
      <trkpt lat="43.6879" lon="6.71343">
        <ele>753</ele>
        <time>2010-11-22T08:59:14Z</time>
      </trkpt>
      <trkpt lat="43.68789" lon="6.7133">
        <ele>746</ele>
        <time>2010-11-22T08:59:35Z</time>
      </trkpt>
      <trkpt lat="43.68789" lon="6.71317">
        <ele>736</ele>
        <time>2010-11-22T08:59:50Z</time>
      </trkpt>
      <trkpt lat="43.68787" lon="6.71305">
        <ele>736</ele>
        <time>2010-11-22T09:00:11Z</time>
      </trkpt>
      <trkpt lat="43.68782" lon="6.71295">
        <ele>742</ele>
        <time>2010-11-22T09:00:33Z</time>
      </trkpt>
      <trkpt lat="43.68784" lon="6.71282">
        <ele>742</ele>
        <time>2010-11-22T09:00:59Z</time>
      </trkpt>
      <trkpt lat="43.68783" lon="6.7127">
        <ele>742</ele>
        <time>2010-11-22T09:01:12Z</time>
      </trkpt>
      <trkpt lat="43.68782" lon="6.71257">
        <ele>733</ele>
        <time>2010-11-22T09:01:25Z</time>
      </trkpt>
      <trkpt lat="43.68784" lon="6.71245">
        <ele>726</ele>
        <time>2010-11-22T09:01:39Z</time>
      </trkpt>
      <trkpt lat="43.68784" lon="6.71232">
        <ele>726</ele>
        <time>2010-11-22T09:01:51Z</time>
      </trkpt>
      <trkpt lat="43.6878" lon="6.7122">
        <ele>726</ele>
        <time>2010-11-22T09:02:06Z</time>
      </trkpt>
      <trkpt lat="43.68784" lon="6.71209">
        <ele>716</ele>
        <time>2010-11-22T09:02:24Z</time>
      </trkpt>
      <trkpt lat="43.68775" lon="6.71219">
        <ele>728</ele>
        <time>2010-11-22T09:03:15Z</time>
      </trkpt>
      <trkpt lat="43.68767" lon="6.71223">
        <ele>728</ele>
        <time>2010-11-22T09:03:34Z</time>
      </trkpt>
      <trkpt lat="43.68761" lon="6.71233">
        <ele>735</ele>
        <time>2010-11-22T09:03:48Z</time>
      </trkpt>
      <trkpt lat="43.68752" lon="6.71238">
        <ele>724</ele>
        <time>2010-11-22T09:04:05Z</time>
      </trkpt>
      <trkpt lat="43.68744" lon="6.71245">
        <ele>724</ele>
        <time>2010-11-22T09:04:19Z</time>
      </trkpt>
      <trkpt lat="43.68735" lon="6.71248">
        <ele>724</ele>
        <time>2010-11-22T09:04:39Z</time>
      </trkpt>
      <trkpt lat="43.68731" lon="6.71261">
        <ele>732</ele>
        <time>2010-11-22T09:04:50Z</time>
      </trkpt>
      <trkpt lat="43.68736" lon="6.71249">
        <ele>722</ele>
        <time>2010-11-22T09:05:06Z</time>
      </trkpt>
      <trkpt lat="43.68745" lon="6.71245">
        <ele>722</ele>
        <time>2010-11-22T09:05:18Z</time>
      </trkpt>
      <trkpt lat="43.68742" lon="6.71257">
        <ele>713</ele>
        <time>2010-11-22T09:05:45Z</time>
      </trkpt>
      <trkpt lat="43.68734" lon="6.71266">
        <ele>713</ele>
        <time>2010-11-22T09:06:02Z</time>
      </trkpt>
      <trkpt lat="43.68727" lon="6.71275">
        <ele>720</ele>
        <time>2010-11-22T09:06:16Z</time>
      </trkpt>
      <trkpt lat="43.68718" lon="6.71279">
        <ele>720</ele>
        <time>2010-11-22T09:06:34Z</time>
      </trkpt>
      <trkpt lat="43.68713" lon="6.71291">
        <ele>720</ele>
        <time>2010-11-22T09:06:45Z</time>
      </trkpt>
      <trkpt lat="43.68719" lon="6.71281">
        <ele>720</ele>
        <time>2010-11-22T09:07:00Z</time>
      </trkpt>
      <trkpt lat="43.68722" lon="6.71293">
        <ele>697</ele>
        <time>2010-11-22T09:07:30Z</time>
      </trkpt>
      <trkpt lat="43.68718" lon="6.71305">
        <ele>704</ele>
        <time>2010-11-22T09:07:46Z</time>
      </trkpt>
      <trkpt lat="43.68709" lon="6.71309">
        <ele>704</ele>
        <time>2010-11-22T09:08:00Z</time>
      </trkpt>
      <trkpt lat="43.68701" lon="6.71313">
        <ele>704</ele>
        <time>2010-11-22T09:08:09Z</time>
      </trkpt>
      <trkpt lat="43.68691" lon="6.71316">
        <ele>704</ele>
        <time>2010-11-22T09:08:16Z</time>
      </trkpt>
      <trkpt lat="43.68684" lon="6.71325">
        <ele>710</ele>
        <time>2010-11-22T09:08:31Z</time>
      </trkpt>
      <trkpt lat="43.68675" lon="6.71325">
        <ele>704</ele>
        <time>2010-11-22T09:08:45Z</time>
      </trkpt>
      <trkpt lat="43.68667" lon="6.71321">
        <ele>698</ele>
        <time>2010-11-22T09:08:58Z</time>
      </trkpt>
      <trkpt lat="43.68658" lon="6.71324">
        <ele>698</ele>
        <time>2010-11-22T09:09:08Z</time>
      </trkpt>
      <trkpt lat="43.68648" lon="6.71322">
        <ele>689</ele>
        <time>2010-11-22T09:09:20Z</time>
      </trkpt>
      <trkpt lat="43.68641" lon="6.71329">
        <ele>689</ele>
        <time>2010-11-22T09:09:30Z</time>
      </trkpt>
      <trkpt lat="43.68633" lon="6.71334">
        <ele>694</ele>
        <time>2010-11-22T09:09:49Z</time>
      </trkpt>
      <trkpt lat="43.68624" lon="6.71338">
        <ele>694</ele>
        <time>2010-11-22T09:10:38Z</time>
      </trkpt>
      <trkpt lat="43.68615" lon="6.7134">
        <ele>687</ele>
        <time>2010-11-22T09:11:17Z</time>
      </trkpt>
      <trkpt lat="43.68607" lon="6.71345">
        <ele>687</ele>
        <time>2010-11-22T09:11:30Z</time>
      </trkpt>
      <trkpt lat="43.68598" lon="6.71345">
        <ele>687</ele>
        <time>2010-11-22T09:11:39Z</time>
      </trkpt>
      <trkpt lat="43.68588" lon="6.71347">
        <ele>687</ele>
        <time>2010-11-22T09:11:51Z</time>
      </trkpt>
      <trkpt lat="43.68579" lon="6.71349">
        <ele>687</ele>
        <time>2010-11-22T09:12:06Z</time>
      </trkpt>
      <trkpt lat="43.6857" lon="6.71345">
        <ele>678</ele>
        <time>2010-11-22T09:12:16Z</time>
      </trkpt>
      <trkpt lat="43.68561" lon="6.71347">
        <ele>678</ele>
        <time>2010-11-22T09:12:25Z</time>
      </trkpt>
      <trkpt lat="43.68553" lon="6.71351">
        <ele>678</ele>
        <time>2010-11-22T09:12:36Z</time>
      </trkpt>
      <trkpt lat="43.68543" lon="6.71354">
        <ele>678</ele>
        <time>2010-11-22T09:12:50Z</time>
      </trkpt>
      <trkpt lat="43.68535" lon="6.71358">
        <ele>678</ele>
        <time>2010-11-22T09:13:02Z</time>
      </trkpt>
      <trkpt lat="43.68526" lon="6.71363">
        <ele>678</ele>
        <time>2010-11-22T09:13:13Z</time>
      </trkpt>
      <trkpt lat="43.68517" lon="6.71367">
        <ele>678</ele>
        <time>2010-11-22T09:13:27Z</time>
      </trkpt>
      <trkpt lat="43.68508" lon="6.71369">
        <ele>669</ele>
        <time>2010-11-22T09:13:41Z</time>
      </trkpt>
      <trkpt lat="43.68499" lon="6.71369">
        <ele>669</ele>
        <time>2010-11-22T09:13:56Z</time>
      </trkpt>
      <trkpt lat="43.68491" lon="6.71364">
        <ele>669</ele>
        <time>2010-11-22T09:14:14Z</time>
      </trkpt>
      <trkpt lat="43.68489" lon="6.71351">
        <ele>662</ele>
        <time>2010-11-22T09:14:29Z</time>
      </trkpt>
      <trkpt lat="43.68482" lon="6.7136">
        <ele>662</ele>
        <time>2010-11-22T09:15:26Z</time>
      </trkpt>
      <trkpt lat="43.68477" lon="6.71369">
        <ele>653</ele>
        <time>2010-11-22T09:15:37Z</time>
      </trkpt>
      <trkpt lat="43.68478" lon="6.71382">
        <ele>653</ele>
        <time>2010-11-22T09:15:56Z</time>
      </trkpt>
      <trkpt lat="43.68487" lon="6.71388">
        <ele>653</ele>
        <time>2010-11-22T09:16:09Z</time>
      </trkpt>
      <trkpt lat="43.68495" lon="6.71401">
        <ele>653</ele>
        <time>2010-11-22T09:16:23Z</time>
      </trkpt>
      <trkpt lat="43.6849" lon="6.71413">
        <ele>653</ele>
        <time>2010-11-22T09:16:34Z</time>
      </trkpt>
      <trkpt lat="43.68481" lon="6.7141">
        <ele>653</ele>
        <time>2010-11-22T09:16:48Z</time>
      </trkpt>
      <trkpt lat="43.68474" lon="6.71402">
        <ele>647</ele>
        <time>2010-11-22T09:16:56Z</time>
      </trkpt>
      <trkpt lat="43.6847" lon="6.7139">
        <ele>639</ele>
        <time>2010-11-22T09:17:06Z</time>
      </trkpt>
      <trkpt lat="43.68461" lon="6.71387">
        <ele>647</ele>
        <time>2010-11-22T09:18:11Z</time>
      </trkpt>
      <trkpt lat="43.68463" lon="6.71399">
        <ele>647</ele>
        <time>2010-11-22T09:19:29Z</time>
      </trkpt>
      <trkpt lat="43.68457" lon="6.7141">
        <ele>641</ele>
        <time>2010-11-22T09:20:07Z</time>
      </trkpt>
      <trkpt lat="43.6846" lon="6.71422">
        <ele>641</ele>
        <time>2010-11-22T09:20:18Z</time>
      </trkpt>
      <trkpt lat="43.68468" lon="6.71425">
        <ele>641</ele>
        <time>2010-11-22T09:20:30Z</time>
      </trkpt>
      <trkpt lat="43.68473" lon="6.71436">
        <ele>634</ele>
        <time>2010-11-22T09:20:40Z</time>
      </trkpt>
      <trkpt lat="43.68481" lon="6.7144">
        <ele>634</ele>
        <time>2010-11-22T09:20:52Z</time>
      </trkpt>
      <trkpt lat="43.68476" lon="6.7145">
        <ele>634</ele>
        <time>2010-11-22T09:21:08Z</time>
      </trkpt>
      <trkpt lat="43.68466" lon="6.71455">
        <ele>634</ele>
        <time>2010-11-22T09:21:19Z</time>
      </trkpt>
      <trkpt lat="43.68457" lon="6.71451">
        <ele>628</ele>
        <time>2010-11-22T09:21:34Z</time>
      </trkpt>
      <trkpt lat="43.68448" lon="6.71449">
        <ele>628</ele>
        <time>2010-11-22T09:21:49Z</time>
      </trkpt>
      <trkpt lat="43.6844" lon="6.71456">
        <ele>628</ele>
        <time>2010-11-22T09:22:18Z</time>
      </trkpt>
      <trkpt lat="43.68431" lon="6.71457">
        <ele>628</ele>
        <time>2010-11-22T09:22:29Z</time>
      </trkpt>
      <trkpt lat="43.68421" lon="6.71454">
        <ele>614</ele>
        <time>2010-11-22T09:23:07Z</time>
      </trkpt>
      <trkpt lat="43.68413" lon="6.71447">
        <ele>614</ele>
        <time>2010-11-22T09:23:18Z</time>
      </trkpt>
      <trkpt lat="43.68405" lon="6.71452">
        <ele>614</ele>
        <time>2010-11-22T09:23:48Z</time>
      </trkpt>
      <trkpt lat="43.68397" lon="6.71446">
        <ele>614</ele>
        <time>2010-11-22T09:23:58Z</time>
      </trkpt>
      <trkpt lat="43.6839" lon="6.71437">
        <ele>604</ele>
        <time>2010-11-22T09:24:23Z</time>
      </trkpt>
      <trkpt lat="43.68385" lon="6.71425">
        <ele>604</ele>
        <time>2010-11-22T09:24:36Z</time>
      </trkpt>
      <trkpt lat="43.68377" lon="6.71421">
        <ele>599</ele>
        <time>2010-11-22T09:25:00Z</time>
      </trkpt>
      <trkpt lat="43.68369" lon="6.71413">
        <ele>599</ele>
        <time>2010-11-22T09:25:13Z</time>
      </trkpt>
      <trkpt lat="43.68362" lon="6.71407">
        <ele>599</ele>
        <time>2010-11-22T09:25:36Z</time>
      </trkpt>
      <trkpt lat="43.68354" lon="6.714">
        <ele>599</ele>
        <time>2010-11-22T09:25:55Z</time>
      </trkpt>
      <trkpt lat="43.68348" lon="6.71391">
        <ele>599</ele>
        <time>2010-11-22T09:26:46Z</time>
      </trkpt>
      <trkpt lat="43.68345" lon="6.71379">
        <ele>590</ele>
        <time>2010-11-22T09:27:00Z</time>
      </trkpt>
      <trkpt lat="43.68345" lon="6.71367">
        <ele>584</ele>
        <time>2010-11-22T09:27:19Z</time>
      </trkpt>
      <trkpt lat="43.68336" lon="6.71362">
        <ele>584</ele>
        <time>2010-11-22T09:27:40Z</time>
      </trkpt>
      <trkpt lat="43.68327" lon="6.71361">
        <ele>584</ele>
        <time>2010-11-22T09:28:44Z</time>
      </trkpt>
      <trkpt lat="43.6833" lon="6.7135">
        <ele>578</ele>
        <time>2010-11-22T09:29:24Z</time>
      </trkpt>
      <trkpt lat="43.68332" lon="6.71338">
        <ele>578</ele>
        <time>2010-11-22T09:29:58Z</time>
      </trkpt>
      <trkpt lat="43.68322" lon="6.71335">
        <ele>578</ele>
        <time>2010-11-22T09:31:09Z</time>
      </trkpt>
      <trkpt lat="43.68317" lon="6.71325">
        <ele>578</ele>
        <time>2010-11-22T09:31:39Z</time>
      </trkpt>
      <trkpt lat="43.68326" lon="6.71332">
        <ele>571</ele>
        <time>2010-11-22T09:33:00Z</time>
      </trkpt>
      <trkpt lat="43.68319" lon="6.71325">
        <ele>571</ele>
        <time>2010-11-22T09:34:19Z</time>
      </trkpt>
      <trkpt lat="43.68325" lon="6.71334">
        <ele>557</ele>
        <time>2010-11-22T09:37:16Z</time>
      </trkpt>
      <trkpt lat="43.68316" lon="6.71329">
        <ele>571</ele>
        <time>2010-11-22T09:37:38Z</time>
      </trkpt>
      <trkpt lat="43.68319" lon="6.71317">
        <ele>580</ele>
        <time>2010-11-22T09:38:57Z</time>
      </trkpt>
      <trkpt lat="43.68323" lon="6.71329">
        <ele>566</ele>
        <time>2010-11-22T09:39:49Z</time>
      </trkpt>
      <trkpt lat="43.68314" lon="6.71329">
        <ele>573</ele>
        <time>2010-11-22T09:40:22Z</time>
      </trkpt>
      <trkpt lat="43.68323" lon="6.71332">
        <ele>573</ele>
        <time>2010-11-22T09:41:11Z</time>
      </trkpt>
      <trkpt lat="43.68326" lon="6.7132">
        <ele>573</ele>
        <time>2010-11-22T09:42:43Z</time>
      </trkpt>
      <trkpt lat="43.68331" lon="6.71309">
        <ele>573</ele>
        <time>2010-11-22T09:43:16Z</time>
      </trkpt>
      <trkpt lat="43.68334" lon="6.71297">
        <ele>573</ele>
        <time>2010-11-22T09:43:28Z</time>
      </trkpt>
      <trkpt lat="43.68332" lon="6.71284">
        <ele>564</ele>
        <time>2010-11-22T09:43:42Z</time>
      </trkpt>
      <trkpt lat="43.68329" lon="6.71272">
        <ele>564</ele>
        <time>2010-11-22T09:43:56Z</time>
      </trkpt>
      <trkpt lat="43.6832" lon="6.71268">
        <ele>564</ele>
        <time>2010-11-22T09:44:11Z</time>
      </trkpt>
      <trkpt lat="43.68319" lon="6.71254">
        <ele>559</ele>
        <time>2010-11-22T09:44:24Z</time>
      </trkpt>
      <trkpt lat="43.68315" lon="6.71243">
        <ele>559</ele>
        <time>2010-11-22T09:44:33Z</time>
      </trkpt>
      <trkpt lat="43.68316" lon="6.71229">
        <ele>559</ele>
        <time>2010-11-22T09:44:42Z</time>
      </trkpt>
      <trkpt lat="43.68317" lon="6.71217">
        <ele>559</ele>
        <time>2010-11-22T09:44:59Z</time>
      </trkpt>
      <trkpt lat="43.6832" lon="6.71205">
        <ele>559</ele>
        <time>2010-11-22T09:45:18Z</time>
      </trkpt>
      <trkpt lat="43.6832" lon="6.71192">
        <ele>559</ele>
        <time>2010-11-22T09:45:39Z</time>
      </trkpt>
      <trkpt lat="43.6832" lon="6.7118">
        <ele>559</ele>
        <time>2010-11-22T09:45:47Z</time>
      </trkpt>
      <trkpt lat="43.68325" lon="6.71168">
        <ele>547</ele>
        <time>2010-11-22T09:46:27Z</time>
      </trkpt>
      <trkpt lat="43.68321" lon="6.71156">
        <ele>558</ele>
        <time>2010-11-22T09:46:50Z</time>
      </trkpt>
      <trkpt lat="43.68325" lon="6.71143">
        <ele>558</ele>
        <time>2010-11-22T09:47:08Z</time>
      </trkpt>
      <trkpt lat="43.68316" lon="6.71135">
        <ele>558</ele>
        <time>2010-11-22T09:47:28Z</time>
      </trkpt>
      <trkpt lat="43.68319" lon="6.71123">
        <ele>558</ele>
        <time>2010-11-22T09:48:29Z</time>
      </trkpt>
      <trkpt lat="43.68323" lon="6.71112">
        <ele>558</ele>
        <time>2010-11-22T09:48:56Z</time>
      </trkpt>
      <trkpt lat="43.68323" lon="6.71099">
        <ele>553</ele>
        <time>2010-11-22T09:49:35Z</time>
      </trkpt>
      <trkpt lat="43.68326" lon="6.71087">
        <ele>553</ele>
        <time>2010-11-22T09:50:14Z</time>
      </trkpt>
      <trkpt lat="43.68323" lon="6.71075">
        <ele>553</ele>
        <time>2010-11-22T09:51:14Z</time>
      </trkpt>
      <trkpt lat="43.6833" lon="6.71062">
        <ele>553</ele>
        <time>2010-11-22T09:51:50Z</time>
      </trkpt>
      <trkpt lat="43.68335" lon="6.71052">
        <ele>553</ele>
        <time>2010-11-22T09:52:11Z</time>
      </trkpt>
      <trkpt lat="43.68335" lon="6.7104">
        <ele>553</ele>
        <time>2010-11-22T09:52:29Z</time>
      </trkpt>
      <trkpt lat="43.68331" lon="6.71028">
        <ele>553</ele>
        <time>2010-11-22T09:52:39Z</time>
      </trkpt>
      <trkpt lat="43.6833" lon="6.71016">
        <ele>547</ele>
        <time>2010-11-22T09:53:01Z</time>
      </trkpt>
      <trkpt lat="43.6833" lon="6.71003">
        <ele>547</ele>
        <time>2010-11-22T09:53:14Z</time>
      </trkpt>
      <trkpt lat="43.68332" lon="6.70991">
        <ele>547</ele>
        <time>2010-11-22T09:53:55Z</time>
      </trkpt>
      <trkpt lat="43.68334" lon="6.70979">
        <ele>542</ele>
        <time>2010-11-22T09:54:08Z</time>
      </trkpt>
      <trkpt lat="43.68325" lon="6.70971">
        <ele>548</ele>
        <time>2010-11-22T09:54:39Z</time>
      </trkpt>
      <trkpt lat="43.68316" lon="6.70972">
        <ele>555</ele>
        <time>2010-11-22T09:54:52Z</time>
      </trkpt>
      <trkpt lat="43.68325" lon="6.70971">
        <ele>545</ele>
        <time>2010-11-22T09:55:05Z</time>
      </trkpt>
      <trkpt lat="43.68334" lon="6.70969">
        <ele>538</ele>
        <time>2010-11-22T09:55:14Z</time>
      </trkpt>
      <trkpt lat="43.68324" lon="6.70969">
        <ele>550</ele>
        <time>2010-11-22T09:55:39Z</time>
      </trkpt>
      <trkpt lat="43.68332" lon="6.70972">
        <ele>538</ele>
        <time>2010-11-22T09:56:44Z</time>
      </trkpt>
      <trkpt lat="43.68323" lon="6.70972">
        <ele>533</ele>
        <time>2010-11-22T09:57:04Z</time>
      </trkpt>
      <trkpt lat="43.68316" lon="6.70965">
        <ele>533</ele>
        <time>2010-11-22T10:00:23Z</time>
      </trkpt>
      <trkpt lat="43.68316" lon="6.70978">
        <ele>522</ele>
        <time>2010-11-22T10:01:14Z</time>
      </trkpt>
      <trkpt lat="43.68319" lon="6.7099">
        <ele>522</ele>
        <time>2010-11-22T10:01:25Z</time>
      </trkpt>
      <trkpt lat="43.68323" lon="6.71002">
        <ele>529</ele>
        <time>2010-11-22T10:01:36Z</time>
      </trkpt>
      <trkpt lat="43.68322" lon="6.71015">
        <ele>529</ele>
        <time>2010-11-22T10:01:48Z</time>
      </trkpt>
      <trkpt lat="43.68316" lon="6.71025">
        <ele>537</ele>
        <time>2010-11-22T10:02:25Z</time>
      </trkpt>
      <trkpt lat="43.68313" lon="6.71038">
        <ele>531</ele>
        <time>2010-11-22T10:02:49Z</time>
      </trkpt>
      <trkpt lat="43.68311" lon="6.71051">
        <ele>531</ele>
        <time>2010-11-22T10:02:57Z</time>
      </trkpt>
      <trkpt lat="43.68307" lon="6.71063">
        <ele>531</ele>
        <time>2010-11-22T10:03:05Z</time>
      </trkpt>
      <trkpt lat="43.683" lon="6.7107">
        <ele>531</ele>
        <time>2010-11-22T10:03:13Z</time>
      </trkpt>
      <trkpt lat="43.68294" lon="6.71081">
        <ele>531</ele>
        <time>2010-11-22T10:03:23Z</time>
      </trkpt>
      <trkpt lat="43.6829" lon="6.71094">
        <ele>531</ele>
        <time>2010-11-22T10:03:31Z</time>
      </trkpt>
      <trkpt lat="43.68288" lon="6.71106">
        <ele>531</ele>
        <time>2010-11-22T10:03:39Z</time>
      </trkpt>
      <trkpt lat="43.68285" lon="6.71118">
        <ele>531</ele>
        <time>2010-11-22T10:03:47Z</time>
      </trkpt>
      <trkpt lat="43.68284" lon="6.71131">
        <ele>531</ele>
        <time>2010-11-22T10:03:55Z</time>
      </trkpt>
      <trkpt lat="43.68283" lon="6.71145">
        <ele>537</ele>
        <time>2010-11-22T10:04:04Z</time>
      </trkpt>
      <trkpt lat="43.68279" lon="6.71157">
        <ele>537</ele>
        <time>2010-11-22T10:04:12Z</time>
      </trkpt>
      <trkpt lat="43.6828" lon="6.71169">
        <ele>537</ele>
        <time>2010-11-22T10:04:19Z</time>
      </trkpt>
      <trkpt lat="43.68283" lon="6.71181">
        <ele>537</ele>
        <time>2010-11-22T10:04:27Z</time>
      </trkpt>
      <trkpt lat="43.68285" lon="6.71192">
        <ele>537</ele>
        <time>2010-11-22T10:04:35Z</time>
      </trkpt>
      <trkpt lat="43.68283" lon="6.71204">
        <ele>537</ele>
        <time>2010-11-22T10:04:45Z</time>
      </trkpt>
      <trkpt lat="43.68283" lon="6.71217">
        <ele>537</ele>
        <time>2010-11-22T10:04:54Z</time>
      </trkpt>
      <trkpt lat="43.6828" lon="6.7123">
        <ele>537</ele>
        <time>2010-11-22T10:05:05Z</time>
      </trkpt>
      <trkpt lat="43.68275" lon="6.7124">
        <ele>544</ele>
        <time>2010-11-22T10:05:13Z</time>
      </trkpt>
      <trkpt lat="43.6827" lon="6.7125">
        <ele>544</ele>
        <time>2010-11-22T10:05:21Z</time>
      </trkpt>
      <trkpt lat="43.68266" lon="6.71262">
        <ele>544</ele>
        <time>2010-11-22T10:05:30Z</time>
      </trkpt>
      <trkpt lat="43.68264" lon="6.71274">
        <ele>544</ele>
        <time>2010-11-22T10:05:39Z</time>
      </trkpt>
      <trkpt lat="43.6826" lon="6.71286">
        <ele>544</ele>
        <time>2010-11-22T10:05:48Z</time>
      </trkpt>
      <trkpt lat="43.68255" lon="6.71297">
        <ele>544</ele>
        <time>2010-11-22T10:05:56Z</time>
      </trkpt>
      <trkpt lat="43.68247" lon="6.71304">
        <ele>544</ele>
        <time>2010-11-22T10:06:06Z</time>
      </trkpt>
      <trkpt lat="43.6824" lon="6.71312">
        <ele>544</ele>
        <time>2010-11-22T10:06:16Z</time>
      </trkpt>
      <trkpt lat="43.68231" lon="6.71317">
        <ele>544</ele>
        <time>2010-11-22T10:06:23Z</time>
      </trkpt>
      <trkpt lat="43.68224" lon="6.71325">
        <ele>544</ele>
        <time>2010-11-22T10:06:31Z</time>
      </trkpt>
      <trkpt lat="43.68217" lon="6.71334">
        <ele>544</ele>
        <time>2010-11-22T10:06:40Z</time>
      </trkpt>
      <trkpt lat="43.68212" lon="6.71344">
        <ele>544</ele>
        <time>2010-11-22T10:06:48Z</time>
      </trkpt>
      <trkpt lat="43.68217" lon="6.71334">
        <ele>544</ele>
        <time>2010-11-22T10:07:53Z</time>
      </trkpt>
      <trkpt lat="43.68222" lon="6.71323">
        <ele>551</ele>
        <time>2010-11-22T10:08:18Z</time>
      </trkpt>
      <trkpt lat="43.68217" lon="6.71312">
        <ele>542</ele>
        <time>2010-11-22T10:10:19Z</time>
      </trkpt>
      <trkpt lat="43.68212" lon="6.71302">
        <ele>542</ele>
        <time>2010-11-22T10:10:45Z</time>
      </trkpt>
      <trkpt lat="43.68203" lon="6.71298">
        <ele>537</ele>
        <time>2010-11-22T10:11:00Z</time>
      </trkpt>
      <trkpt lat="43.68198" lon="6.71289">
        <ele>530</ele>
        <time>2010-11-22T10:11:33Z</time>
      </trkpt>
      <trkpt lat="43.68193" lon="6.71277">
        <ele>530</ele>
        <time>2010-11-22T10:12:10Z</time>
      </trkpt>
      <trkpt lat="43.68189" lon="6.71265">
        <ele>530</ele>
        <time>2010-11-22T10:12:31Z</time>
      </trkpt>
      <trkpt lat="43.68184" lon="6.71255">
        <ele>524</ele>
        <time>2010-11-22T10:13:05Z</time>
      </trkpt>
      <trkpt lat="43.6818" lon="6.71266">
        <ele>517</ele>
        <time>2010-11-22T10:16:57Z</time>
      </trkpt>
      <trkpt lat="43.68176" lon="6.71278">
        <ele>517</ele>
        <time>2010-11-22T10:17:20Z</time>
      </trkpt>
      <trkpt lat="43.68172" lon="6.7129">
        <ele>517</ele>
        <time>2010-11-22T10:17:31Z</time>
      </trkpt>
      <trkpt lat="43.6817" lon="6.71302">
        <ele>517</ele>
        <time>2010-11-22T10:17:44Z</time>
      </trkpt>
      <trkpt lat="43.68166" lon="6.71314">
        <ele>524</ele>
        <time>2010-11-22T10:18:00Z</time>
      </trkpt>
      <trkpt lat="43.68159" lon="6.71324">
        <ele>524</ele>
        <time>2010-11-22T10:18:09Z</time>
      </trkpt>
      <trkpt lat="43.68155" lon="6.71334">
        <ele>524</ele>
        <time>2010-11-22T10:18:21Z</time>
      </trkpt>
      <trkpt lat="43.6815" lon="6.71346">
        <ele>524</ele>
        <time>2010-11-22T10:18:31Z</time>
      </trkpt>
      <trkpt lat="43.68143" lon="6.71355">
        <ele>529</ele>
        <time>2010-11-22T10:18:47Z</time>
      </trkpt>
      <trkpt lat="43.68141" lon="6.71369">
        <ele>529</ele>
        <time>2010-11-22T10:19:02Z</time>
      </trkpt>
      <trkpt lat="43.68143" lon="6.71381">
        <ele>529</ele>
        <time>2010-11-22T10:19:11Z</time>
      </trkpt>
      <trkpt lat="43.68146" lon="6.71393">
        <ele>529</ele>
        <time>2010-11-22T10:19:20Z</time>
      </trkpt>
      <trkpt lat="43.68146" lon="6.71405">
        <ele>529</ele>
        <time>2010-11-22T10:19:28Z</time>
      </trkpt>
      <trkpt lat="43.6815" lon="6.71417">
        <ele>529</ele>
        <time>2010-11-22T10:19:39Z</time>
      </trkpt>
      <trkpt lat="43.68154" lon="6.7143">
        <ele>529</ele>
        <time>2010-11-22T10:19:48Z</time>
      </trkpt>
      <trkpt lat="43.68156" lon="6.71442">
        <ele>536</ele>
        <time>2010-11-22T10:19:59Z</time>
      </trkpt>
      <trkpt lat="43.68155" lon="6.71455">
        <ele>536</ele>
        <time>2010-11-22T10:20:08Z</time>
      </trkpt>
      <trkpt lat="43.68156" lon="6.71468">
        <ele>536</ele>
        <time>2010-11-22T10:20:16Z</time>
      </trkpt>
      <trkpt lat="43.6816" lon="6.71479">
        <ele>536</ele>
        <time>2010-11-22T10:20:26Z</time>
      </trkpt>
      <trkpt lat="43.68167" lon="6.71486">
        <ele>536</ele>
        <time>2010-11-22T10:20:35Z</time>
      </trkpt>
      <trkpt lat="43.68175" lon="6.71493">
        <ele>536</ele>
        <time>2010-11-22T10:20:47Z</time>
      </trkpt>
      <trkpt lat="43.68184" lon="6.71501">
        <ele>536</ele>
        <time>2010-11-22T10:20:54Z</time>
      </trkpt>
      <trkpt lat="43.68192" lon="6.71507">
        <ele>536</ele>
        <time>2010-11-22T10:21:03Z</time>
      </trkpt>
      <trkpt lat="43.68197" lon="6.71519">
        <ele>536</ele>
        <time>2010-11-22T10:21:13Z</time>
      </trkpt>
      <trkpt lat="43.68201" lon="6.7153">
        <ele>536</ele>
        <time>2010-11-22T10:21:23Z</time>
      </trkpt>
      <trkpt lat="43.6821" lon="6.71536">
        <ele>536</ele>
        <time>2010-11-22T10:21:30Z</time>
      </trkpt>
      <trkpt lat="43.68219" lon="6.71534">
        <ele>541</ele>
        <time>2010-11-22T10:21:39Z</time>
      </trkpt>
      <trkpt lat="43.6822" lon="6.71547">
        <ele>541</ele>
        <time>2010-11-22T10:21:56Z</time>
      </trkpt>
      <trkpt lat="43.68214" lon="6.71557">
        <ele>541</ele>
        <time>2010-11-22T10:22:08Z</time>
      </trkpt>
      <trkpt lat="43.68205" lon="6.71563">
        <ele>546</ele>
        <time>2010-11-22T10:22:17Z</time>
      </trkpt>
      <trkpt lat="43.68199" lon="6.71572">
        <ele>546</ele>
        <time>2010-11-22T10:22:31Z</time>
      </trkpt>
      <trkpt lat="43.68191" lon="6.71579">
        <ele>546</ele>
        <time>2010-11-22T10:22:45Z</time>
      </trkpt>
      <trkpt lat="43.68184" lon="6.71587">
        <ele>546</ele>
        <time>2010-11-22T10:22:58Z</time>
      </trkpt>
      <trkpt lat="43.68176" lon="6.71594">
        <ele>555</ele>
        <time>2010-11-22T10:23:11Z</time>
      </trkpt>
      <trkpt lat="43.68168" lon="6.71601">
        <ele>555</ele>
        <time>2010-11-22T10:23:22Z</time>
      </trkpt>
      <trkpt lat="43.68161" lon="6.71608">
        <ele>555</ele>
        <time>2010-11-22T10:23:32Z</time>
      </trkpt>
      <trkpt lat="43.68152" lon="6.71613">
        <ele>555</ele>
        <time>2010-11-22T10:23:43Z</time>
      </trkpt>
      <trkpt lat="43.68143" lon="6.71616">
        <ele>555</ele>
        <time>2010-11-22T10:24:02Z</time>
      </trkpt>
      <trkpt lat="43.68133" lon="6.71614">
        <ele>555</ele>
        <time>2010-11-22T10:25:12Z</time>
      </trkpt>
      <trkpt lat="43.68124" lon="6.71611">
        <ele>555</ele>
        <time>2010-11-22T10:25:19Z</time>
      </trkpt>
      <trkpt lat="43.68114" lon="6.71611">
        <ele>555</ele>
        <time>2010-11-22T10:25:29Z</time>
      </trkpt>
      <trkpt lat="43.68105" lon="6.71615">
        <ele>555</ele>
        <time>2010-11-22T10:25:41Z</time>
      </trkpt>
      <trkpt lat="43.68097" lon="6.71622">
        <ele>555</ele>
        <time>2010-11-22T10:25:50Z</time>
      </trkpt>
      <trkpt lat="43.68092" lon="6.71633">
        <ele>555</ele>
        <time>2010-11-22T10:26:00Z</time>
      </trkpt>
      <trkpt lat="43.68088" lon="6.71644">
        <ele>555</ele>
        <time>2010-11-22T10:26:10Z</time>
      </trkpt>
      <trkpt lat="43.68086" lon="6.71656">
        <ele>555</ele>
        <time>2010-11-22T10:26:20Z</time>
      </trkpt>
      <trkpt lat="43.68085" lon="6.71669">
        <ele>555</ele>
        <time>2010-11-22T10:26:30Z</time>
      </trkpt>
      <trkpt lat="43.6808" lon="6.71679">
        <ele>555</ele>
        <time>2010-11-22T10:26:40Z</time>
      </trkpt>
      <trkpt lat="43.68075" lon="6.71689">
        <ele>560</ele>
        <time>2010-11-22T10:26:49Z</time>
      </trkpt>
      <trkpt lat="43.6807" lon="6.717">
        <ele>560</ele>
        <time>2010-11-22T10:26:58Z</time>
      </trkpt>
      <trkpt lat="43.68066" lon="6.71713">
        <ele>560</ele>
        <time>2010-11-22T10:27:09Z</time>
      </trkpt>
      <trkpt lat="43.68062" lon="6.71724">
        <ele>560</ele>
        <time>2010-11-22T10:27:18Z</time>
      </trkpt>
      <trkpt lat="43.68061" lon="6.71737">
        <ele>560</ele>
        <time>2010-11-22T10:27:31Z</time>
      </trkpt>
      <trkpt lat="43.68058" lon="6.71749">
        <ele>560</ele>
        <time>2010-11-22T10:27:41Z</time>
      </trkpt>
      <trkpt lat="43.68053" lon="6.71759">
        <ele>560</ele>
        <time>2010-11-22T10:27:51Z</time>
      </trkpt>
      <trkpt lat="43.68049" lon="6.71771">
        <ele>566</ele>
        <time>2010-11-22T10:28:01Z</time>
      </trkpt>
      <trkpt lat="43.68045" lon="6.71782">
        <ele>566</ele>
        <time>2010-11-22T10:28:11Z</time>
      </trkpt>
      <trkpt lat="43.68039" lon="6.71793">
        <ele>566</ele>
        <time>2010-11-22T10:28:22Z</time>
      </trkpt>
      <trkpt lat="43.68035" lon="6.71803">
        <ele>566</ele>
        <time>2010-11-22T10:28:33Z</time>
      </trkpt>
      <trkpt lat="43.6803" lon="6.71814">
        <ele>572</ele>
        <time>2010-11-22T10:28:43Z</time>
      </trkpt>
      <trkpt lat="43.68024" lon="6.71824">
        <ele>572</ele>
        <time>2010-11-22T10:28:53Z</time>
      </trkpt>
      <trkpt lat="43.68017" lon="6.71833">
        <ele>572</ele>
        <time>2010-11-22T10:29:05Z</time>
      </trkpt>
      <trkpt lat="43.68011" lon="6.71843">
        <ele>572</ele>
        <time>2010-11-22T10:29:16Z</time>
      </trkpt>
      <trkpt lat="43.68004" lon="6.71853">
        <ele>572</ele>
        <time>2010-11-22T10:29:26Z</time>
      </trkpt>
      <trkpt lat="43.68002" lon="6.71865">
        <ele>572</ele>
        <time>2010-11-22T10:29:36Z</time>
      </trkpt>
      <trkpt lat="43.67999" lon="6.71877">
        <ele>572</ele>
        <time>2010-11-22T10:29:46Z</time>
      </trkpt>
      <trkpt lat="43.67998" lon="6.7189">
        <ele>572</ele>
        <time>2010-11-22T10:29:55Z</time>
      </trkpt>
      <trkpt lat="43.68" lon="6.71904">
        <ele>572</ele>
        <time>2010-11-22T10:30:05Z</time>
      </trkpt>
      <trkpt lat="43.68003" lon="6.71916">
        <ele>572</ele>
        <time>2010-11-22T10:30:14Z</time>
      </trkpt>
      <trkpt lat="43.68007" lon="6.71927">
        <ele>572</ele>
        <time>2010-11-22T10:30:22Z</time>
      </trkpt>
      <trkpt lat="43.68012" lon="6.71937">
        <ele>572</ele>
        <time>2010-11-22T10:30:29Z</time>
      </trkpt>
      <trkpt lat="43.68017" lon="6.71948">
        <ele>572</ele>
        <time>2010-11-22T10:30:37Z</time>
      </trkpt>
      <trkpt lat="43.68021" lon="6.7196">
        <ele>572</ele>
        <time>2010-11-22T10:30:46Z</time>
      </trkpt>
      <trkpt lat="43.68026" lon="6.7197">
        <ele>572</ele>
        <time>2010-11-22T10:30:54Z</time>
      </trkpt>
      <trkpt lat="43.68031" lon="6.7198">
        <ele>572</ele>
        <time>2010-11-22T10:31:02Z</time>
      </trkpt>
      <trkpt lat="43.68027" lon="6.71992">
        <ele>572</ele>
        <time>2010-11-22T10:31:14Z</time>
      </trkpt>
      <trkpt lat="43.68024" lon="6.72004">
        <ele>578</ele>
        <time>2010-11-22T10:31:28Z</time>
      </trkpt>
      <trkpt lat="43.68034" lon="6.72001">
        <ele>578</ele>
        <time>2010-11-22T10:33:22Z</time>
      </trkpt>
      <trkpt lat="43.68041" lon="6.71994">
        <ele>578</ele>
        <time>2010-11-22T10:33:30Z</time>
      </trkpt>
      <trkpt lat="43.68049" lon="6.71987">
        <ele>578</ele>
        <time>2010-11-22T10:33:41Z</time>
      </trkpt>
      <trkpt lat="43.68057" lon="6.71983">
        <ele>578</ele>
        <time>2010-11-22T10:33:51Z</time>
      </trkpt>
      <trkpt lat="43.68066" lon="6.71981">
        <ele>578</ele>
        <time>2010-11-22T10:34:01Z</time>
      </trkpt>
      <trkpt lat="43.68075" lon="6.71978">
        <ele>578</ele>
        <time>2010-11-22T10:34:10Z</time>
      </trkpt>
      <trkpt lat="43.68084" lon="6.71976">
        <ele>578</ele>
        <time>2010-11-22T10:34:20Z</time>
      </trkpt>
      <trkpt lat="43.68094" lon="6.71973">
        <ele>578</ele>
        <time>2010-11-22T10:34:30Z</time>
      </trkpt>
      <trkpt lat="43.68102" lon="6.71969">
        <ele>584</ele>
        <time>2010-11-22T10:34:43Z</time>
      </trkpt>
      <trkpt lat="43.68111" lon="6.71962">
        <ele>584</ele>
        <time>2010-11-22T10:34:55Z</time>
      </trkpt>
      <trkpt lat="43.6812" lon="6.71958">
        <ele>591</ele>
        <time>2010-11-22T10:35:08Z</time>
      </trkpt>
      <trkpt lat="43.68129" lon="6.71955">
        <ele>591</ele>
        <time>2010-11-22T10:35:21Z</time>
      </trkpt>
      <trkpt lat="43.68137" lon="6.71959">
        <ele>596</ele>
        <time>2010-11-22T10:35:35Z</time>
      </trkpt>
      <trkpt lat="43.68146" lon="6.71961">
        <ele>596</ele>
        <time>2010-11-22T10:35:50Z</time>
      </trkpt>
      <trkpt lat="43.68156" lon="6.71966">
        <ele>596</ele>
        <time>2010-11-22T10:35:59Z</time>
      </trkpt>
      <trkpt lat="43.68165" lon="6.71965">
        <ele>596</ele>
        <time>2010-11-22T10:36:15Z</time>
      </trkpt>
      <trkpt lat="43.68174" lon="6.71964">
        <ele>596</ele>
        <time>2010-11-22T10:36:28Z</time>
      </trkpt>
      <trkpt lat="43.68183" lon="6.71963">
        <ele>596</ele>
        <time>2010-11-22T10:36:39Z</time>
      </trkpt>
      <trkpt lat="43.68193" lon="6.71967">
        <ele>596</ele>
        <time>2010-11-22T10:36:50Z</time>
      </trkpt>
      <trkpt lat="43.68202" lon="6.71967">
        <ele>596</ele>
        <time>2010-11-22T10:37:02Z</time>
      </trkpt>
      <trkpt lat="43.68211" lon="6.7197">
        <ele>601</ele>
        <time>2010-11-22T10:37:15Z</time>
      </trkpt>
      <trkpt lat="43.6822" lon="6.7197">
        <ele>601</ele>
        <time>2010-11-22T10:37:24Z</time>
      </trkpt>
      <trkpt lat="43.68229" lon="6.71971">
        <ele>601</ele>
        <time>2010-11-22T10:37:37Z</time>
      </trkpt>
      <trkpt lat="43.68238" lon="6.7197">
        <ele>601</ele>
        <time>2010-11-22T10:37:49Z</time>
      </trkpt>
      <trkpt lat="43.68247" lon="6.71968">
        <ele>601</ele>
        <time>2010-11-22T10:38:00Z</time>
      </trkpt>
      <trkpt lat="43.68256" lon="6.71964">
        <ele>611</ele>
        <time>2010-11-22T10:38:18Z</time>
      </trkpt>
      <trkpt lat="43.68265" lon="6.71964">
        <ele>611</ele>
        <time>2010-11-22T10:38:30Z</time>
      </trkpt>
      <trkpt lat="43.68274" lon="6.71964">
        <ele>619</ele>
        <time>2010-11-22T10:38:45Z</time>
      </trkpt>
      <trkpt lat="43.68283" lon="6.71964">
        <ele>619</ele>
        <time>2010-11-22T10:38:57Z</time>
      </trkpt>
      <trkpt lat="43.68292" lon="6.71961">
        <ele>619</ele>
        <time>2010-11-22T10:39:12Z</time>
      </trkpt>
      <trkpt lat="43.68302" lon="6.71961">
        <ele>619</ele>
        <time>2010-11-22T10:39:20Z</time>
      </trkpt>
      <trkpt lat="43.68311" lon="6.71964">
        <ele>619</ele>
        <time>2010-11-22T10:39:37Z</time>
      </trkpt>
      <trkpt lat="43.6832" lon="6.71967">
        <ele>619</ele>
        <time>2010-11-22T10:39:50Z</time>
      </trkpt>
      <trkpt lat="43.68329" lon="6.71967">
        <ele>619</ele>
        <time>2010-11-22T10:40:01Z</time>
      </trkpt>
      <trkpt lat="43.6834" lon="6.71965">
        <ele>619</ele>
        <time>2010-11-22T10:40:09Z</time>
      </trkpt>
      <trkpt lat="43.68349" lon="6.71964">
        <ele>619</ele>
        <time>2010-11-22T10:40:24Z</time>
      </trkpt>
      <trkpt lat="43.68359" lon="6.71961">
        <ele>626</ele>
        <time>2010-11-22T10:40:38Z</time>
      </trkpt>
      <trkpt lat="43.68369" lon="6.71962">
        <ele>626</ele>
        <time>2010-11-22T10:40:50Z</time>
      </trkpt>
      <trkpt lat="43.68379" lon="6.7196">
        <ele>626</ele>
        <time>2010-11-22T10:41:07Z</time>
      </trkpt>
      <trkpt lat="43.68386" lon="6.71952">
        <ele>631</ele>
        <time>2010-11-22T10:41:24Z</time>
      </trkpt>
      <trkpt lat="43.68395" lon="6.71958">
        <ele>631</ele>
        <time>2010-11-22T10:43:10Z</time>
      </trkpt>
      <trkpt lat="43.6839" lon="6.71946">
        <ele>631</ele>
        <time>2010-11-22T10:44:34Z</time>
      </trkpt>
      <trkpt lat="43.6838" lon="6.71945">
        <ele>631</ele>
        <time>2010-11-22T10:44:46Z</time>
      </trkpt>
      <trkpt lat="43.68371" lon="6.71943">
        <ele>631</ele>
        <time>2010-11-22T10:45:00Z</time>
      </trkpt>
      <trkpt lat="43.68362" lon="6.71943">
        <ele>631</ele>
        <time>2010-11-22T10:45:13Z</time>
      </trkpt>
      <trkpt lat="43.68354" lon="6.71936">
        <ele>631</ele>
        <time>2010-11-22T10:45:26Z</time>
      </trkpt>
      <trkpt lat="43.68349" lon="6.71926">
        <ele>631</ele>
        <time>2010-11-22T10:45:39Z</time>
      </trkpt>
      <trkpt lat="43.68358" lon="6.7192">
        <ele>637</ele>
        <time>2010-11-22T10:45:55Z</time>
      </trkpt>
      <trkpt lat="43.68365" lon="6.71913">
        <ele>637</ele>
        <time>2010-11-22T10:46:08Z</time>
      </trkpt>
      <trkpt lat="43.68373" lon="6.71906">
        <ele>637</ele>
        <time>2010-11-22T10:46:21Z</time>
      </trkpt>
      <trkpt lat="43.68382" lon="6.71905">
        <ele>644</ele>
        <time>2010-11-22T10:46:33Z</time>
      </trkpt>
      <trkpt lat="43.68391" lon="6.71901">
        <ele>644</ele>
        <time>2010-11-22T10:46:45Z</time>
      </trkpt>
      <trkpt lat="43.684" lon="6.71899">
        <ele>644</ele>
        <time>2010-11-22T10:46:57Z</time>
      </trkpt>
      <trkpt lat="43.6841" lon="6.71898">
        <ele>644</ele>
        <time>2010-11-22T10:47:08Z</time>
      </trkpt>
      <trkpt lat="43.68419" lon="6.71894">
        <ele>644</ele>
        <time>2010-11-22T10:47:20Z</time>
      </trkpt>
      <trkpt lat="43.68428" lon="6.71896">
        <ele>650</ele>
        <time>2010-11-22T10:47:36Z</time>
      </trkpt>
      <trkpt lat="43.68437" lon="6.71897">
        <ele>650</ele>
        <time>2010-11-22T10:47:47Z</time>
      </trkpt>
      <trkpt lat="43.68446" lon="6.71897">
        <ele>650</ele>
        <time>2010-11-22T10:47:58Z</time>
      </trkpt>
      <trkpt lat="43.68455" lon="6.71899">
        <ele>650</ele>
        <time>2010-11-22T10:48:08Z</time>
      </trkpt>
      <trkpt lat="43.68465" lon="6.71901">
        <ele>650</ele>
        <time>2010-11-22T10:48:21Z</time>
      </trkpt>
      <trkpt lat="43.68473" lon="6.71905">
        <ele>650</ele>
        <time>2010-11-22T10:48:32Z</time>
      </trkpt>
      <trkpt lat="43.68482" lon="6.71905">
        <ele>650</ele>
        <time>2010-11-22T10:48:48Z</time>
      </trkpt>
      <trkpt lat="43.68491" lon="6.71905">
        <ele>650</ele>
        <time>2010-11-22T10:49:01Z</time>
      </trkpt>
      <trkpt lat="43.685" lon="6.71908">
        <ele>650</ele>
        <time>2010-11-22T10:49:13Z</time>
      </trkpt>
      <trkpt lat="43.68509" lon="6.71913">
        <ele>650</ele>
        <time>2010-11-22T10:49:22Z</time>
      </trkpt>
      <trkpt lat="43.68518" lon="6.71915">
        <ele>650</ele>
        <time>2010-11-22T10:49:36Z</time>
      </trkpt>
      <trkpt lat="43.68527" lon="6.71917">
        <ele>656</ele>
        <time>2010-11-22T10:49:47Z</time>
      </trkpt>
      <trkpt lat="43.68536" lon="6.71922">
        <ele>656</ele>
        <time>2010-11-22T10:49:58Z</time>
      </trkpt>
      <trkpt lat="43.68545" lon="6.71923">
        <ele>656</ele>
        <time>2010-11-22T10:50:12Z</time>
      </trkpt>
      <trkpt lat="43.68555" lon="6.71923">
        <ele>656</ele>
        <time>2010-11-22T10:50:24Z</time>
      </trkpt>
      <trkpt lat="43.68564" lon="6.71925">
        <ele>656</ele>
        <time>2010-11-22T10:50:42Z</time>
      </trkpt>
      <trkpt lat="43.68573" lon="6.71921">
        <ele>663</ele>
        <time>2010-11-22T10:51:01Z</time>
      </trkpt>
      <trkpt lat="43.68583" lon="6.71925">
        <ele>663</ele>
        <time>2010-11-22T10:51:11Z</time>
      </trkpt>
      <trkpt lat="43.68592" lon="6.71925">
        <ele>663</ele>
        <time>2010-11-22T10:51:23Z</time>
      </trkpt>
      <trkpt lat="43.68601" lon="6.71925">
        <ele>663</ele>
        <time>2010-11-22T10:51:35Z</time>
      </trkpt>
      <trkpt lat="43.6861" lon="6.71923">
        <ele>670</ele>
        <time>2010-11-22T10:51:51Z</time>
      </trkpt>
      <trkpt lat="43.68618" lon="6.71919">
        <ele>670</ele>
        <time>2010-11-22T10:52:04Z</time>
      </trkpt>
      <trkpt lat="43.68628" lon="6.71916">
        <ele>670</ele>
        <time>2010-11-22T10:52:15Z</time>
      </trkpt>
      <trkpt lat="43.68636" lon="6.7191">
        <ele>670</ele>
        <time>2010-11-22T10:52:32Z</time>
      </trkpt>
      <trkpt lat="43.68644" lon="6.71904">
        <ele>677</ele>
        <time>2010-11-22T10:52:53Z</time>
      </trkpt>
      <trkpt lat="43.68654" lon="6.71902">
        <ele>677</ele>
        <time>2010-11-22T10:53:10Z</time>
      </trkpt>
      <trkpt lat="43.68663" lon="6.71906">
        <ele>677</ele>
        <time>2010-11-22T10:53:20Z</time>
      </trkpt>
      <trkpt lat="43.68658" lon="6.71917">
        <ele>677</ele>
        <time>2010-11-22T10:53:34Z</time>
      </trkpt>
      <trkpt lat="43.68654" lon="6.71928">
        <ele>677</ele>
        <time>2010-11-22T10:53:47Z</time>
      </trkpt>
      <trkpt lat="43.68655" lon="6.71941">
        <ele>677</ele>
        <time>2010-11-22T10:54:04Z</time>
      </trkpt>
      <trkpt lat="43.68654" lon="6.71953">
        <ele>677</ele>
        <time>2010-11-22T10:54:42Z</time>
      </trkpt>
      <trkpt lat="43.68651" lon="6.71965">
        <ele>677</ele>
        <time>2010-11-22T10:55:09Z</time>
      </trkpt>
      <trkpt lat="43.68651" lon="6.71979">
        <ele>677</ele>
        <time>2010-11-22T10:55:29Z</time>
      </trkpt>
      <trkpt lat="43.68644" lon="6.71987">
        <ele>677</ele>
        <time>2010-11-22T10:56:03Z</time>
      </trkpt>
      <trkpt lat="43.68646" lon="6.72">
        <ele>677</ele>
        <time>2010-11-22T10:57:01Z</time>
      </trkpt>
      <trkpt lat="43.68642" lon="6.72012">
        <ele>670</ele>
        <time>2010-11-22T10:57:18Z</time>
      </trkpt>
      <trkpt lat="43.68641" lon="6.72024">
        <ele>670</ele>
        <time>2010-11-22T10:57:31Z</time>
      </trkpt>
      <trkpt lat="43.68643" lon="6.72037">
        <ele>665</ele>
        <time>2010-11-22T10:57:44Z</time>
      </trkpt>
      <trkpt lat="43.68638" lon="6.72048">
        <ele>665</ele>
        <time>2010-11-22T10:58:13Z</time>
      </trkpt>
      <trkpt lat="43.68643" lon="6.72058">
        <ele>660</ele>
        <time>2010-11-22T10:58:36Z</time>
      </trkpt>
      <trkpt lat="43.68644" lon="6.7207">
        <ele>660</ele>
        <time>2010-11-22T10:58:58Z</time>
      </trkpt>
      <trkpt lat="43.68647" lon="6.72082">
        <ele>660</ele>
        <time>2010-11-22T10:59:16Z</time>
      </trkpt>
      <trkpt lat="43.68646" lon="6.72095">
        <ele>660</ele>
        <time>2010-11-22T10:59:35Z</time>
      </trkpt>
      <trkpt lat="43.6865" lon="6.72107">
        <ele>654</ele>
        <time>2010-11-22T10:59:46Z</time>
      </trkpt>
      <trkpt lat="43.68655" lon="6.7212">
        <ele>654</ele>
        <time>2010-11-22T11:00:00Z</time>
      </trkpt>
      <trkpt lat="43.68665" lon="6.72133">
        <ele>649</ele>
        <time>2010-11-22T11:00:11Z</time>
      </trkpt>
      <trkpt lat="43.68668" lon="6.72146">
        <ele>649</ele>
        <time>2010-11-22T11:00:16Z</time>
      </trkpt>
      <trkpt lat="43.68664" lon="6.72158">
        <ele>649</ele>
        <time>2010-11-22T11:00:35Z</time>
      </trkpt>
      <trkpt lat="43.68665" lon="6.72171">
        <ele>649</ele>
        <time>2010-11-22T11:00:49Z</time>
      </trkpt>
      <trkpt lat="43.68664" lon="6.72183">
        <ele>649</ele>
        <time>2010-11-22T11:01:01Z</time>
      </trkpt>
      <trkpt lat="43.68665" lon="6.72197">
        <ele>649</ele>
        <time>2010-11-22T11:01:10Z</time>
      </trkpt>
      <trkpt lat="43.68671" lon="6.72207">
        <ele>641</ele>
        <time>2010-11-22T11:01:20Z</time>
      </trkpt>
      <trkpt lat="43.68668" lon="6.72218">
        <ele>641</ele>
        <time>2010-11-22T11:01:56Z</time>
      </trkpt>
      <trkpt lat="43.68668" lon="6.72231">
        <ele>641</ele>
        <time>2010-11-22T11:02:05Z</time>
      </trkpt>
      <trkpt lat="43.68663" lon="6.72242">
        <ele>641</ele>
        <time>2010-11-22T11:02:14Z</time>
      </trkpt>
      <trkpt lat="43.68654" lon="6.72248">
        <ele>641</ele>
        <time>2010-11-22T11:02:25Z</time>
      </trkpt>
      <trkpt lat="43.68646" lon="6.72244">
        <ele>641</ele>
        <time>2010-11-22T11:02:41Z</time>
      </trkpt>
      <trkpt lat="43.68639" lon="6.72235">
        <ele>632</ele>
        <time>2010-11-22T11:02:52Z</time>
      </trkpt>
      <trkpt lat="43.6863" lon="6.72232">
        <ele>632</ele>
        <time>2010-11-22T11:03:02Z</time>
      </trkpt>
      <trkpt lat="43.68621" lon="6.72231">
        <ele>632</ele>
        <time>2010-11-22T11:03:10Z</time>
      </trkpt>
      <trkpt lat="43.68612" lon="6.72229">
        <ele>632</ele>
        <time>2010-11-22T11:03:16Z</time>
      </trkpt>
      <trkpt lat="43.68602" lon="6.72226">
        <ele>639</ele>
        <time>2010-11-22T11:03:24Z</time>
      </trkpt>
      <trkpt lat="43.68593" lon="6.72226">
        <ele>639</ele>
        <time>2010-11-22T11:03:37Z</time>
      </trkpt>
      <trkpt lat="43.68584" lon="6.72223">
        <ele>639</ele>
        <time>2010-11-22T11:03:47Z</time>
      </trkpt>
      <trkpt lat="43.68577" lon="6.72215">
        <ele>639</ele>
        <time>2010-11-22T11:03:53Z</time>
      </trkpt>
      <trkpt lat="43.68569" lon="6.72208">
        <ele>639</ele>
        <time>2010-11-22T11:04:02Z</time>
      </trkpt>
      <trkpt lat="43.6856" lon="6.72207">
        <ele>639</ele>
        <time>2010-11-22T11:04:12Z</time>
      </trkpt>
      <trkpt lat="43.68551" lon="6.72213">
        <ele>639</ele>
        <time>2010-11-22T11:04:28Z</time>
      </trkpt>
      <trkpt lat="43.68541" lon="6.72211">
        <ele>648</ele>
        <time>2010-11-22T11:04:37Z</time>
      </trkpt>
      <trkpt lat="43.68532" lon="6.72208">
        <ele>648</ele>
        <time>2010-11-22T11:04:45Z</time>
      </trkpt>
      <trkpt lat="43.68523" lon="6.72205">
        <ele>648</ele>
        <time>2010-11-22T11:04:55Z</time>
      </trkpt>
      <trkpt lat="43.68513" lon="6.72202">
        <ele>641</ele>
        <time>2010-11-22T11:05:03Z</time>
      </trkpt>
      <trkpt lat="43.68504" lon="6.72202">
        <ele>641</ele>
        <time>2010-11-22T11:05:12Z</time>
      </trkpt>
      <trkpt lat="43.68495" lon="6.72199">
        <ele>641</ele>
        <time>2010-11-22T11:05:22Z</time>
      </trkpt>
      <trkpt lat="43.68486" lon="6.72203">
        <ele>636</ele>
        <time>2010-11-22T11:05:35Z</time>
      </trkpt>
      <trkpt lat="43.68477" lon="6.72208">
        <ele>636</ele>
        <time>2010-11-22T11:05:45Z</time>
      </trkpt>
      <trkpt lat="43.68467" lon="6.72212">
        <ele>636</ele>
        <time>2010-11-22T11:05:55Z</time>
      </trkpt>
      <trkpt lat="43.68459" lon="6.72219">
        <ele>642</ele>
        <time>2010-11-22T11:06:18Z</time>
      </trkpt>
      <trkpt lat="43.6845" lon="6.72214">
        <ele>642</ele>
        <time>2010-11-22T11:07:42Z</time>
      </trkpt>
      <trkpt lat="43.6845" lon="6.72226">
        <ele>642</ele>
        <time>2010-11-22T11:08:31Z</time>
      </trkpt>
      <trkpt lat="43.68441" lon="6.72233">
        <ele>642</ele>
        <time>2010-11-22T11:08:44Z</time>
      </trkpt>
      <trkpt lat="43.68433" lon="6.7224">
        <ele>642</ele>
        <time>2010-11-22T11:08:56Z</time>
      </trkpt>
      <trkpt lat="43.68425" lon="6.72244">
        <ele>642</ele>
        <time>2010-11-22T11:09:05Z</time>
      </trkpt>
      <trkpt lat="43.68417" lon="6.72252">
        <ele>642</ele>
        <time>2010-11-22T11:09:17Z</time>
      </trkpt>
      <trkpt lat="43.68409" lon="6.72258">
        <ele>642</ele>
        <time>2010-11-22T11:09:28Z</time>
      </trkpt>
      <trkpt lat="43.68401" lon="6.72265">
        <ele>642</ele>
        <time>2010-11-22T11:09:39Z</time>
      </trkpt>
      <trkpt lat="43.68393" lon="6.72272">
        <ele>642</ele>
        <time>2010-11-22T11:09:48Z</time>
      </trkpt>
      <trkpt lat="43.68385" lon="6.72279">
        <ele>642</ele>
        <time>2010-11-22T11:09:58Z</time>
      </trkpt>
      <trkpt lat="43.68378" lon="6.72288">
        <ele>642</ele>
        <time>2010-11-22T11:10:09Z</time>
      </trkpt>
      <trkpt lat="43.6837" lon="6.72294">
        <ele>637</ele>
        <time>2010-11-22T11:10:19Z</time>
      </trkpt>
      <trkpt lat="43.68363" lon="6.72301">
        <ele>637</ele>
        <time>2010-11-22T11:10:27Z</time>
      </trkpt>
      <trkpt lat="43.68354" lon="6.72306">
        <ele>637</ele>
        <time>2010-11-22T11:10:35Z</time>
      </trkpt>
      <trkpt lat="43.68345" lon="6.72312">
        <ele>637</ele>
        <time>2010-11-22T11:10:44Z</time>
      </trkpt>
      <trkpt lat="43.68337" lon="6.72319">
        <ele>637</ele>
        <time>2010-11-22T11:10:54Z</time>
      </trkpt>
      <trkpt lat="43.6833" lon="6.72326">
        <ele>637</ele>
        <time>2010-11-22T11:11:03Z</time>
      </trkpt>
      <trkpt lat="43.68321" lon="6.72332">
        <ele>637</ele>
        <time>2010-11-22T11:11:12Z</time>
      </trkpt>
      <trkpt lat="43.68314" lon="6.7234">
        <ele>637</ele>
        <time>2010-11-22T11:11:20Z</time>
      </trkpt>
      <trkpt lat="43.68307" lon="6.72349">
        <ele>637</ele>
        <time>2010-11-22T11:11:29Z</time>
      </trkpt>
      <trkpt lat="43.68302" lon="6.72358">
        <ele>637</ele>
        <time>2010-11-22T11:11:39Z</time>
      </trkpt>
      <trkpt lat="43.68296" lon="6.72369">
        <ele>637</ele>
        <time>2010-11-22T11:11:49Z</time>
      </trkpt>
      <trkpt lat="43.68289" lon="6.72379">
        <ele>637</ele>
        <time>2010-11-22T11:11:59Z</time>
      </trkpt>
      <trkpt lat="43.68281" lon="6.72386">
        <ele>647</ele>
        <time>2010-11-22T11:12:10Z</time>
      </trkpt>
      <trkpt lat="43.68277" lon="6.72397">
        <ele>647</ele>
        <time>2010-11-22T11:14:31Z</time>
      </trkpt>
      <trkpt lat="43.68273" lon="6.72409">
        <ele>647</ele>
        <time>2010-11-22T11:14:42Z</time>
      </trkpt>
      <trkpt lat="43.68267" lon="6.72419">
        <ele>647</ele>
        <time>2010-11-22T11:14:58Z</time>
      </trkpt>
      <trkpt lat="43.6826" lon="6.72429">
        <ele>647</ele>
        <time>2010-11-22T11:15:06Z</time>
      </trkpt>
      <trkpt lat="43.68255" lon="6.72439">
        <ele>647</ele>
        <time>2010-11-22T11:15:17Z</time>
      </trkpt>
      <trkpt lat="43.68249" lon="6.72449">
        <ele>641</ele>
        <time>2010-11-22T11:15:30Z</time>
      </trkpt>
      <trkpt lat="43.68242" lon="6.72458">
        <ele>641</ele>
        <time>2010-11-22T11:15:41Z</time>
      </trkpt>
      <trkpt lat="43.68236" lon="6.72467">
        <ele>641</ele>
        <time>2010-11-22T11:15:49Z</time>
      </trkpt>
      <trkpt lat="43.68231" lon="6.72477">
        <ele>641</ele>
        <time>2010-11-22T11:15:56Z</time>
      </trkpt>
      <trkpt lat="43.68225" lon="6.72487">
        <ele>641</ele>
        <time>2010-11-22T11:16:04Z</time>
      </trkpt>
      <trkpt lat="43.68219" lon="6.72496">
        <ele>641</ele>
        <time>2010-11-22T11:16:12Z</time>
      </trkpt>
      <trkpt lat="43.68214" lon="6.72507">
        <ele>641</ele>
        <time>2010-11-22T11:16:21Z</time>
      </trkpt>
      <trkpt lat="43.68208" lon="6.72517">
        <ele>635</ele>
        <time>2010-11-22T11:16:28Z</time>
      </trkpt>
      <trkpt lat="43.68202" lon="6.72527">
        <ele>635</ele>
        <time>2010-11-22T11:16:36Z</time>
      </trkpt>
      <trkpt lat="43.68196" lon="6.72536">
        <ele>635</ele>
        <time>2010-11-22T11:16:44Z</time>
      </trkpt>
      <trkpt lat="43.6819" lon="6.72548">
        <ele>635</ele>
        <time>2010-11-22T11:16:53Z</time>
      </trkpt>
      <trkpt lat="43.68182" lon="6.72555">
        <ele>635</ele>
        <time>2010-11-22T11:17:01Z</time>
      </trkpt>
      <trkpt lat="43.68174" lon="6.72563">
        <ele>635</ele>
        <time>2010-11-22T11:17:10Z</time>
      </trkpt>
      <trkpt lat="43.68165" lon="6.72568">
        <ele>635</ele>
        <time>2010-11-22T11:17:18Z</time>
      </trkpt>
      <trkpt lat="43.68158" lon="6.72575">
        <ele>635</ele>
        <time>2010-11-22T11:17:26Z</time>
      </trkpt>
      <trkpt lat="43.68151" lon="6.72584">
        <ele>641</ele>
        <time>2010-11-22T11:17:35Z</time>
      </trkpt>
      <trkpt lat="43.68144" lon="6.72595">
        <ele>641</ele>
        <time>2010-11-22T11:17:45Z</time>
      </trkpt>
      <trkpt lat="43.68137" lon="6.72604">
        <ele>641</ele>
        <time>2010-11-22T11:17:54Z</time>
      </trkpt>
      <trkpt lat="43.68133" lon="6.72615">
        <ele>641</ele>
        <time>2010-11-22T11:18:01Z</time>
      </trkpt>
      <trkpt lat="43.68128" lon="6.72625">
        <ele>641</ele>
        <time>2010-11-22T11:18:10Z</time>
      </trkpt>
      <trkpt lat="43.68124" lon="6.72636">
        <ele>641</ele>
        <time>2010-11-22T11:18:18Z</time>
      </trkpt>
      <trkpt lat="43.6812" lon="6.72649">
        <ele>641</ele>
        <time>2010-11-22T11:18:26Z</time>
      </trkpt>
      <trkpt lat="43.68114" lon="6.72659">
        <ele>641</ele>
        <time>2010-11-22T11:18:35Z</time>
      </trkpt>
      <trkpt lat="43.68108" lon="6.72669">
        <ele>641</ele>
        <time>2010-11-22T11:18:44Z</time>
      </trkpt>
      <trkpt lat="43.68105" lon="6.72682">
        <ele>641</ele>
        <time>2010-11-22T11:18:54Z</time>
      </trkpt>
      <trkpt lat="43.68109" lon="6.72694">
        <ele>641</ele>
        <time>2010-11-22T11:19:04Z</time>
      </trkpt>
      <trkpt lat="43.68105" lon="6.72705">
        <ele>641</ele>
        <time>2010-11-22T11:19:31Z</time>
      </trkpt>
      <trkpt lat="43.68101" lon="6.72717">
        <ele>641</ele>
        <time>2010-11-22T11:19:40Z</time>
      </trkpt>
      <trkpt lat="43.68098" lon="6.7273">
        <ele>641</ele>
        <time>2010-11-22T11:19:49Z</time>
      </trkpt>
      <trkpt lat="43.68098" lon="6.72742">
        <ele>641</ele>
        <time>2010-11-22T11:19:58Z</time>
      </trkpt>
      <trkpt lat="43.68096" lon="6.72755">
        <ele>641</ele>
        <time>2010-11-22T11:20:07Z</time>
      </trkpt>
      <trkpt lat="43.68095" lon="6.72768">
        <ele>641</ele>
        <time>2010-11-22T11:20:16Z</time>
      </trkpt>
      <trkpt lat="43.68093" lon="6.72781">
        <ele>641</ele>
        <time>2010-11-22T11:20:26Z</time>
      </trkpt>
      <trkpt lat="43.68089" lon="6.72793">
        <ele>641</ele>
        <time>2010-11-22T11:20:39Z</time>
      </trkpt>
      <trkpt lat="43.68087" lon="6.72807">
        <ele>641</ele>
        <time>2010-11-22T11:20:49Z</time>
      </trkpt>
      <trkpt lat="43.68087" lon="6.72819">
        <ele>641</ele>
        <time>2010-11-22T11:20:58Z</time>
      </trkpt>
      <trkpt lat="43.68085" lon="6.72833">
        <ele>641</ele>
        <time>2010-11-22T11:21:08Z</time>
      </trkpt>
      <trkpt lat="43.68084" lon="6.72845">
        <ele>636</ele>
        <time>2010-11-22T11:21:17Z</time>
      </trkpt>
      <trkpt lat="43.68082" lon="6.72858">
        <ele>636</ele>
        <time>2010-11-22T11:21:25Z</time>
      </trkpt>
      <trkpt lat="43.68079" lon="6.72871">
        <ele>636</ele>
        <time>2010-11-22T11:21:33Z</time>
      </trkpt>
      <trkpt lat="43.68078" lon="6.72883">
        <ele>636</ele>
        <time>2010-11-22T11:21:41Z</time>
      </trkpt>
      <trkpt lat="43.68077" lon="6.72896">
        <ele>636</ele>
        <time>2010-11-22T11:21:49Z</time>
      </trkpt>
      <trkpt lat="43.68078" lon="6.72908">
        <ele>642</ele>
        <time>2010-11-22T11:21:56Z</time>
      </trkpt>
      <trkpt lat="43.68079" lon="6.72922">
        <ele>642</ele>
        <time>2010-11-22T11:22:04Z</time>
      </trkpt>
      <trkpt lat="43.68081" lon="6.72934">
        <ele>642</ele>
        <time>2010-11-22T11:22:12Z</time>
      </trkpt>
      <trkpt lat="43.68081" lon="6.72948">
        <ele>642</ele>
        <time>2010-11-22T11:22:20Z</time>
      </trkpt>
      <trkpt lat="43.68083" lon="6.7296">
        <ele>642</ele>
        <time>2010-11-22T11:22:28Z</time>
      </trkpt>
      <trkpt lat="43.68084" lon="6.72973">
        <ele>642</ele>
        <time>2010-11-22T11:22:36Z</time>
      </trkpt>
      <trkpt lat="43.68086" lon="6.72986">
        <ele>642</ele>
        <time>2010-11-22T11:22:45Z</time>
      </trkpt>
      <trkpt lat="43.68089" lon="6.72999">
        <ele>642</ele>
        <time>2010-11-22T11:22:53Z</time>
      </trkpt>
      <trkpt lat="43.68093" lon="6.73012">
        <ele>642</ele>
        <time>2010-11-22T11:23:02Z</time>
      </trkpt>
      <trkpt lat="43.68096" lon="6.73023">
        <ele>642</ele>
        <time>2010-11-22T11:23:10Z</time>
      </trkpt>
      <trkpt lat="43.68101" lon="6.73034">
        <ele>642</ele>
        <time>2010-11-22T11:23:18Z</time>
      </trkpt>
      <trkpt lat="43.68106" lon="6.73044">
        <ele>642</ele>
        <time>2010-11-22T11:23:24Z</time>
      </trkpt>
      <trkpt lat="43.6811" lon="6.73056">
        <ele>642</ele>
        <time>2010-11-22T11:23:31Z</time>
      </trkpt>
      <trkpt lat="43.68114" lon="6.73068">
        <ele>642</ele>
        <time>2010-11-22T11:23:39Z</time>
      </trkpt>
      <trkpt lat="43.68118" lon="6.73081">
        <ele>642</ele>
        <time>2010-11-22T11:23:47Z</time>
      </trkpt>
      <trkpt lat="43.6812" lon="6.73092">
        <ele>637</ele>
        <time>2010-11-22T11:23:55Z</time>
      </trkpt>
      <trkpt lat="43.68124" lon="6.73105">
        <ele>637</ele>
        <time>2010-11-22T11:24:03Z</time>
      </trkpt>
      <trkpt lat="43.68127" lon="6.73117">
        <ele>637</ele>
        <time>2010-11-22T11:24:10Z</time>
      </trkpt>
      <trkpt lat="43.68131" lon="6.73129">
        <ele>637</ele>
        <time>2010-11-22T11:24:18Z</time>
      </trkpt>
      <trkpt lat="43.68135" lon="6.73142">
        <ele>637</ele>
        <time>2010-11-22T11:24:25Z</time>
      </trkpt>
      <trkpt lat="43.68138" lon="6.73154">
        <ele>637</ele>
        <time>2010-11-22T11:24:33Z</time>
      </trkpt>
      <trkpt lat="43.68142" lon="6.73166">
        <ele>637</ele>
        <time>2010-11-22T11:24:43Z</time>
      </trkpt>
      <trkpt lat="43.68139" lon="6.73178">
        <ele>637</ele>
        <time>2010-11-22T11:24:52Z</time>
      </trkpt>
      <trkpt lat="43.68131" lon="6.73185">
        <ele>637</ele>
        <time>2010-11-22T11:25:02Z</time>
      </trkpt>
      <trkpt lat="43.68124" lon="6.73191">
        <ele>637</ele>
        <time>2010-11-22T11:25:13Z</time>
      </trkpt>
      <trkpt lat="43.68116" lon="6.73198">
        <ele>628</ele>
        <time>2010-11-22T11:25:24Z</time>
      </trkpt>
      <trkpt lat="43.68109" lon="6.73207">
        <ele>628</ele>
        <time>2010-11-22T11:25:39Z</time>
      </trkpt>
      <trkpt lat="43.68107" lon="6.73219">
        <ele>628</ele>
        <time>2010-11-22T11:25:47Z</time>
      </trkpt>
      <trkpt lat="43.68103" lon="6.73231">
        <ele>628</ele>
        <time>2010-11-22T11:25:56Z</time>
      </trkpt>
      <trkpt lat="43.68103" lon="6.73243">
        <ele>628</ele>
        <time>2010-11-22T11:26:17Z</time>
      </trkpt>
      <trkpt lat="43.68109" lon="6.73253">
        <ele>628</ele>
        <time>2010-11-22T11:27:01Z</time>
      </trkpt>
      <trkpt lat="43.68116" lon="6.73262">
        <ele>635</ele>
        <time>2010-11-22T11:27:15Z</time>
      </trkpt>
      <trkpt lat="43.68122" lon="6.73271">
        <ele>635</ele>
        <time>2010-11-22T11:31:17Z</time>
      </trkpt>
      <trkpt lat="43.68115" lon="6.73263">
        <ele>635</ele>
        <time>2010-11-22T11:31:37Z</time>
      </trkpt>
      <trkpt lat="43.68109" lon="6.73253">
        <ele>635</ele>
        <time>2010-11-22T11:32:00Z</time>
      </trkpt>
      <trkpt lat="43.68117" lon="6.7326">
        <ele>635</ele>
        <time>2010-11-22T11:32:49Z</time>
      </trkpt>
      <trkpt lat="43.68109" lon="6.73256">
        <ele>635</ele>
        <time>2010-11-22T11:47:40Z</time>
      </trkpt>
      <trkpt lat="43.68102" lon="6.73247">
        <ele>635</ele>
        <time>2010-11-22T11:47:58Z</time>
      </trkpt>
      <trkpt lat="43.68109" lon="6.73257">
        <ele>635</ele>
        <time>2010-11-22T11:51:58Z</time>
      </trkpt>
      <trkpt lat="43.68116" lon="6.73264">
        <ele>635</ele>
        <time>2010-11-22T11:52:06Z</time>
      </trkpt>
      <trkpt lat="43.68109" lon="6.73257">
        <ele>635</ele>
        <time>2010-11-22T11:52:33Z</time>
      </trkpt>
      <trkpt lat="43.68117" lon="6.73263">
        <ele>635</ele>
        <time>2010-11-22T11:53:48Z</time>
      </trkpt>
      <trkpt lat="43.68121" lon="6.73275">
        <ele>635</ele>
        <time>2010-11-22T11:56:52Z</time>
      </trkpt>
      <trkpt lat="43.68128" lon="6.73282">
        <ele>635</ele>
        <time>2010-11-22T11:56:59Z</time>
      </trkpt>
      <trkpt lat="43.68136" lon="6.73292">
        <ele>630</ele>
        <time>2010-11-22T11:57:06Z</time>
      </trkpt>
      <trkpt lat="43.68143" lon="6.73301">
        <ele>630</ele>
        <time>2010-11-22T11:57:15Z</time>
      </trkpt>
      <trkpt lat="43.6815" lon="6.73311">
        <ele>630</ele>
        <time>2010-11-22T11:57:24Z</time>
      </trkpt>
      <trkpt lat="43.68142" lon="6.73302">
        <ele>630</ele>
        <time>2010-11-22T11:58:33Z</time>
      </trkpt>
      <trkpt lat="43.68135" lon="6.73295">
        <ele>630</ele>
        <time>2010-11-22T11:58:40Z</time>
      </trkpt>
      <trkpt lat="43.6813" lon="6.73283">
        <ele>630</ele>
        <time>2010-11-22T11:58:53Z</time>
      </trkpt>
      <trkpt lat="43.68124" lon="6.73274">
        <ele>630</ele>
        <time>2010-11-22T11:59:01Z</time>
      </trkpt>
      <trkpt lat="43.68118" lon="6.73264">
        <ele>630</ele>
        <time>2010-11-22T11:59:13Z</time>
      </trkpt>
      <trkpt lat="43.6811" lon="6.73257">
        <ele>630</ele>
        <time>2010-11-22T12:05:25Z</time>
      </trkpt>
      <trkpt lat="43.68103" lon="6.7325">
        <ele>630</ele>
        <time>2010-11-22T12:05:45Z</time>
      </trkpt>
      <trkpt lat="43.68094" lon="6.73251">
        <ele>630</ele>
        <time>2010-11-22T12:06:08Z</time>
      </trkpt>
      <trkpt lat="43.68092" lon="6.73263">
        <ele>630</ele>
        <time>2010-11-22T12:06:20Z</time>
      </trkpt>
      <trkpt lat="43.68091" lon="6.73277">
        <ele>630</ele>
        <time>2010-11-22T12:06:32Z</time>
      </trkpt>
      <trkpt lat="43.68086" lon="6.73287">
        <ele>622</ele>
        <time>2010-11-22T12:06:41Z</time>
      </trkpt>
      <trkpt lat="43.68081" lon="6.733">
        <ele>622</ele>
        <time>2010-11-22T12:06:51Z</time>
      </trkpt>
      <trkpt lat="43.68078" lon="6.73312">
        <ele>622</ele>
        <time>2010-11-22T12:07:03Z</time>
      </trkpt>
      <trkpt lat="43.68078" lon="6.73324">
        <ele>622</ele>
        <time>2010-11-22T12:07:11Z</time>
      </trkpt>
      <trkpt lat="43.68078" lon="6.73337">
        <ele>622</ele>
        <time>2010-11-22T12:07:18Z</time>
      </trkpt>
      <trkpt lat="43.68078" lon="6.73349">
        <ele>622</ele>
        <time>2010-11-22T12:07:26Z</time>
      </trkpt>
      <trkpt lat="43.68078" lon="6.73362">
        <ele>622</ele>
        <time>2010-11-22T12:07:35Z</time>
      </trkpt>
      <trkpt lat="43.68075" lon="6.73374">
        <ele>622</ele>
        <time>2010-11-22T12:07:44Z</time>
      </trkpt>
      <trkpt lat="43.68073" lon="6.73387">
        <ele>617</ele>
        <time>2010-11-22T12:07:53Z</time>
      </trkpt>
      <trkpt lat="43.68071" lon="6.734">
        <ele>617</ele>
        <time>2010-11-22T12:08:02Z</time>
      </trkpt>
      <trkpt lat="43.68076" lon="6.73411">
        <ele>617</ele>
        <time>2010-11-22T12:08:11Z</time>
      </trkpt>
      <trkpt lat="43.68081" lon="6.73421">
        <ele>617</ele>
        <time>2010-11-22T12:08:19Z</time>
      </trkpt>
      <trkpt lat="43.68087" lon="6.73431">
        <ele>617</ele>
        <time>2010-11-22T12:08:28Z</time>
      </trkpt>
      <trkpt lat="43.68094" lon="6.73441">
        <ele>617</ele>
        <time>2010-11-22T12:08:37Z</time>
      </trkpt>
      <trkpt lat="43.68098" lon="6.73452">
        <ele>617</ele>
        <time>2010-11-22T12:08:46Z</time>
      </trkpt>
      <trkpt lat="43.68103" lon="6.73464">
        <ele>617</ele>
        <time>2010-11-22T12:08:56Z</time>
      </trkpt>
      <trkpt lat="43.68109" lon="6.73475">
        <ele>617</ele>
        <time>2010-11-22T12:09:05Z</time>
      </trkpt>
      <trkpt lat="43.68114" lon="6.73486">
        <ele>612</ele>
        <time>2010-11-22T12:09:14Z</time>
      </trkpt>
      <trkpt lat="43.68119" lon="6.73497">
        <ele>612</ele>
        <time>2010-11-22T12:09:23Z</time>
      </trkpt>
      <trkpt lat="43.68124" lon="6.73508">
        <ele>612</ele>
        <time>2010-11-22T12:09:32Z</time>
      </trkpt>
      <trkpt lat="43.68127" lon="6.73521">
        <ele>612</ele>
        <time>2010-11-22T12:09:41Z</time>
      </trkpt>
      <trkpt lat="43.68127" lon="6.73533">
        <ele>612</ele>
        <time>2010-11-22T12:09:51Z</time>
      </trkpt>
      <trkpt lat="43.68128" lon="6.73547">
        <ele>612</ele>
        <time>2010-11-22T12:10:01Z</time>
      </trkpt>
      <trkpt lat="43.68131" lon="6.7356">
        <ele>612</ele>
        <time>2010-11-22T12:10:10Z</time>
      </trkpt>
      <trkpt lat="43.68134" lon="6.73573">
        <ele>612</ele>
        <time>2010-11-22T12:10:18Z</time>
      </trkpt>
      <trkpt lat="43.68139" lon="6.73584">
        <ele>612</ele>
        <time>2010-11-22T12:10:27Z</time>
      </trkpt>
      <trkpt lat="43.68142" lon="6.73595">
        <ele>612</ele>
        <time>2010-11-22T12:10:34Z</time>
      </trkpt>
      <trkpt lat="43.68144" lon="6.73608">
        <ele>607</ele>
        <time>2010-11-22T12:10:43Z</time>
      </trkpt>
      <trkpt lat="43.68146" lon="6.73621">
        <ele>607</ele>
        <time>2010-11-22T12:10:54Z</time>
      </trkpt>
      <trkpt lat="43.68147" lon="6.73633">
        <ele>601</ele>
        <time>2010-11-22T12:11:02Z</time>
      </trkpt>
      <trkpt lat="43.68147" lon="6.73646">
        <ele>601</ele>
        <time>2010-11-22T12:11:11Z</time>
      </trkpt>
      <trkpt lat="43.68144" lon="6.73658">
        <ele>601</ele>
        <time>2010-11-22T12:11:21Z</time>
      </trkpt>
      <trkpt lat="43.68142" lon="6.73671">
        <ele>594</ele>
        <time>2010-11-22T12:11:30Z</time>
      </trkpt>
      <trkpt lat="43.6814" lon="6.73684">
        <ele>594</ele>
        <time>2010-11-22T12:11:39Z</time>
      </trkpt>
      <trkpt lat="43.68138" lon="6.73696">
        <ele>594</ele>
        <time>2010-11-22T12:11:48Z</time>
      </trkpt>
      <trkpt lat="43.68142" lon="6.73709">
        <ele>594</ele>
        <time>2010-11-22T12:11:56Z</time>
      </trkpt>
      <trkpt lat="43.68148" lon="6.73719">
        <ele>594</ele>
        <time>2010-11-22T12:12:03Z</time>
      </trkpt>
      <trkpt lat="43.68152" lon="6.7373">
        <ele>594</ele>
        <time>2010-11-22T12:12:11Z</time>
      </trkpt>
      <trkpt lat="43.68157" lon="6.73741">
        <ele>594</ele>
        <time>2010-11-22T12:12:19Z</time>
      </trkpt>
      <trkpt lat="43.68161" lon="6.73753">
        <ele>594</ele>
        <time>2010-11-22T12:12:28Z</time>
      </trkpt>
      <trkpt lat="43.68167" lon="6.73763">
        <ele>594</ele>
        <time>2010-11-22T12:12:37Z</time>
      </trkpt>
      <trkpt lat="43.68173" lon="6.73773">
        <ele>594</ele>
        <time>2010-11-22T12:12:45Z</time>
      </trkpt>
      <trkpt lat="43.68177" lon="6.73786">
        <ele>594</ele>
        <time>2010-11-22T12:12:54Z</time>
      </trkpt>
      <trkpt lat="43.68184" lon="6.73795">
        <ele>594</ele>
        <time>2010-11-22T12:13:03Z</time>
      </trkpt>
      <trkpt lat="43.68191" lon="6.73804">
        <ele>594</ele>
        <time>2010-11-22T12:13:11Z</time>
      </trkpt>
      <trkpt lat="43.68198" lon="6.73813">
        <ele>594</ele>
        <time>2010-11-22T12:13:20Z</time>
      </trkpt>
      <trkpt lat="43.68205" lon="6.7382">
        <ele>594</ele>
        <time>2010-11-22T12:13:26Z</time>
      </trkpt>
      <trkpt lat="43.68208" lon="6.73833">
        <ele>594</ele>
        <time>2010-11-22T12:13:35Z</time>
      </trkpt>
      <trkpt lat="43.68207" lon="6.73845">
        <ele>587</ele>
        <time>2010-11-22T12:13:43Z</time>
      </trkpt>
      <trkpt lat="43.68206" lon="6.73859">
        <ele>587</ele>
        <time>2010-11-22T12:13:51Z</time>
      </trkpt>
      <trkpt lat="43.68208" lon="6.73871">
        <ele>587</ele>
        <time>2010-11-22T12:13:59Z</time>
      </trkpt>
      <trkpt lat="43.68208" lon="6.73885">
        <ele>587</ele>
        <time>2010-11-22T12:14:08Z</time>
      </trkpt>
      <trkpt lat="43.68206" lon="6.73897">
        <ele>587</ele>
        <time>2010-11-22T12:14:16Z</time>
      </trkpt>
      <trkpt lat="43.68206" lon="6.7391">
        <ele>587</ele>
        <time>2010-11-22T12:14:24Z</time>
      </trkpt>
      <trkpt lat="43.68205" lon="6.73922">
        <ele>587</ele>
        <time>2010-11-22T12:14:32Z</time>
      </trkpt>
      <trkpt lat="43.68205" lon="6.73936">
        <ele>587</ele>
        <time>2010-11-22T12:14:41Z</time>
      </trkpt>
      <trkpt lat="43.68206" lon="6.73949">
        <ele>587</ele>
        <time>2010-11-22T12:14:49Z</time>
      </trkpt>
      <trkpt lat="43.68208" lon="6.73961">
        <ele>587</ele>
        <time>2010-11-22T12:14:56Z</time>
      </trkpt>
      <trkpt lat="43.68212" lon="6.73974">
        <ele>581</ele>
        <time>2010-11-22T12:15:04Z</time>
      </trkpt>
      <trkpt lat="43.68217" lon="6.73985">
        <ele>581</ele>
        <time>2010-11-22T12:15:11Z</time>
      </trkpt>
      <trkpt lat="43.68219" lon="6.73999">
        <ele>581</ele>
        <time>2010-11-22T12:15:20Z</time>
      </trkpt>
      <trkpt lat="43.68223" lon="6.74011">
        <ele>581</ele>
        <time>2010-11-22T12:15:30Z</time>
      </trkpt>
      <trkpt lat="43.68229" lon="6.74021">
        <ele>581</ele>
        <time>2010-11-22T12:15:37Z</time>
      </trkpt>
      <trkpt lat="43.68234" lon="6.74033">
        <ele>581</ele>
        <time>2010-11-22T12:15:45Z</time>
      </trkpt>
      <trkpt lat="43.68238" lon="6.74045">
        <ele>581</ele>
        <time>2010-11-22T12:15:53Z</time>
      </trkpt>
      <trkpt lat="43.68242" lon="6.74056">
        <ele>581</ele>
        <time>2010-11-22T12:16:02Z</time>
      </trkpt>
      <trkpt lat="43.68247" lon="6.74067">
        <ele>588</ele>
        <time>2010-11-22T12:16:09Z</time>
      </trkpt>
      <trkpt lat="43.68254" lon="6.74078">
        <ele>588</ele>
        <time>2010-11-22T12:16:18Z</time>
      </trkpt>
      <trkpt lat="43.68261" lon="6.74085">
        <ele>588</ele>
        <time>2010-11-22T12:16:31Z</time>
      </trkpt>
      <trkpt lat="43.68269" lon="6.74078">
        <ele>593</ele>
        <time>2010-11-22T12:16:41Z</time>
      </trkpt>
      <trkpt lat="43.68275" lon="6.74068">
        <ele>593</ele>
        <time>2010-11-22T12:16:51Z</time>
      </trkpt>
      <trkpt lat="43.68281" lon="6.74058">
        <ele>593</ele>
        <time>2010-11-22T12:17:01Z</time>
      </trkpt>
      <trkpt lat="43.68288" lon="6.74051">
        <ele>593</ele>
        <time>2010-11-22T12:17:17Z</time>
      </trkpt>
      <trkpt lat="43.68294" lon="6.74041">
        <ele>593</ele>
        <time>2010-11-22T12:17:29Z</time>
      </trkpt>
      <trkpt lat="43.68299" lon="6.74031">
        <ele>593</ele>
        <time>2010-11-22T12:17:44Z</time>
      </trkpt>
      <trkpt lat="43.68303" lon="6.74019">
        <ele>599</ele>
        <time>2010-11-22T12:17:58Z</time>
      </trkpt>
      <trkpt lat="43.68309" lon="6.7401">
        <ele>599</ele>
        <time>2010-11-22T12:18:12Z</time>
      </trkpt>
      <trkpt lat="43.68316" lon="6.74001">
        <ele>599</ele>
        <time>2010-11-22T12:18:28Z</time>
      </trkpt>
      <trkpt lat="43.68324" lon="6.73993">
        <ele>599</ele>
        <time>2010-11-22T12:19:06Z</time>
      </trkpt>
      <trkpt lat="43.68332" lon="6.73986">
        <ele>599</ele>
        <time>2010-11-22T12:19:24Z</time>
      </trkpt>
      <trkpt lat="43.68329" lon="6.73974">
        <ele>606</ele>
        <time>2010-11-22T12:19:49Z</time>
      </trkpt>
      <trkpt lat="43.6833" lon="6.73961">
        <ele>606</ele>
        <time>2010-11-22T12:20:03Z</time>
      </trkpt>
      <trkpt lat="43.68335" lon="6.7395">
        <ele>606</ele>
        <time>2010-11-22T12:20:16Z</time>
      </trkpt>
      <trkpt lat="43.68341" lon="6.7394">
        <ele>606</ele>
        <time>2010-11-22T12:20:28Z</time>
      </trkpt>
      <trkpt lat="43.68348" lon="6.73933">
        <ele>614</ele>
        <time>2010-11-22T12:20:38Z</time>
      </trkpt>
      <trkpt lat="43.68355" lon="6.73926">
        <ele>614</ele>
        <time>2010-11-22T12:20:49Z</time>
      </trkpt>
      <trkpt lat="43.68362" lon="6.73919">
        <ele>614</ele>
        <time>2010-11-22T12:20:59Z</time>
      </trkpt>
      <trkpt lat="43.68369" lon="6.73909">
        <ele>614</ele>
        <time>2010-11-22T12:21:11Z</time>
      </trkpt>
      <trkpt lat="43.68374" lon="6.73898">
        <ele>621</ele>
        <time>2010-11-22T12:21:23Z</time>
      </trkpt>
      <trkpt lat="43.68378" lon="6.73887">
        <ele>621</ele>
        <time>2010-11-22T12:21:32Z</time>
      </trkpt>
      <trkpt lat="43.68379" lon="6.73874">
        <ele>621</ele>
        <time>2010-11-22T12:21:44Z</time>
      </trkpt>
      <trkpt lat="43.68384" lon="6.73863">
        <ele>621</ele>
        <time>2010-11-22T12:21:57Z</time>
      </trkpt>
      <trkpt lat="43.6839" lon="6.73853">
        <ele>621</ele>
        <time>2010-11-22T12:22:07Z</time>
      </trkpt>
      <trkpt lat="43.68397" lon="6.73844">
        <ele>621</ele>
        <time>2010-11-22T12:22:15Z</time>
      </trkpt>
      <trkpt lat="43.68403" lon="6.73835">
        <ele>621</ele>
        <time>2010-11-22T12:22:25Z</time>
      </trkpt>
      <trkpt lat="43.68407" lon="6.73824">
        <ele>621</ele>
        <time>2010-11-22T12:22:34Z</time>
      </trkpt>
      <trkpt lat="43.68414" lon="6.73814">
        <ele>630</ele>
        <time>2010-11-22T12:22:42Z</time>
      </trkpt>
      <trkpt lat="43.68421" lon="6.73806">
        <ele>630</ele>
        <time>2010-11-22T12:22:52Z</time>
      </trkpt>
      <trkpt lat="43.68429" lon="6.738">
        <ele>630</ele>
        <time>2010-11-22T12:23:01Z</time>
      </trkpt>
      <trkpt lat="43.68435" lon="6.7379">
        <ele>630</ele>
        <time>2010-11-22T12:23:15Z</time>
      </trkpt>
      <trkpt lat="43.6844" lon="6.73781">
        <ele>630</ele>
        <time>2010-11-22T12:23:25Z</time>
      </trkpt>
      <trkpt lat="43.68445" lon="6.7377">
        <ele>637</ele>
        <time>2010-11-22T12:23:34Z</time>
      </trkpt>
      <trkpt lat="43.68453" lon="6.73761">
        <ele>642</ele>
        <time>2010-11-22T12:23:48Z</time>
      </trkpt>
      <trkpt lat="43.68459" lon="6.73751">
        <ele>642</ele>
        <time>2010-11-22T12:24:04Z</time>
      </trkpt>
      <trkpt lat="43.68468" lon="6.73753">
        <ele>635</ele>
        <time>2010-11-22T12:24:36Z</time>
      </trkpt>
      <trkpt lat="43.68474" lon="6.73744">
        <ele>635</ele>
        <time>2010-11-22T12:24:49Z</time>
      </trkpt>
      <trkpt lat="43.68483" lon="6.7374">
        <ele>651</ele>
        <time>2010-11-22T12:25:11Z</time>
      </trkpt>
      <trkpt lat="43.68491" lon="6.73734">
        <ele>658</ele>
        <time>2010-11-22T12:25:36Z</time>
      </trkpt>
      <trkpt lat="43.68499" lon="6.73727">
        <ele>658</ele>
        <time>2010-11-22T12:25:49Z</time>
      </trkpt>
      <trkpt lat="43.68506" lon="6.73717">
        <ele>652</ele>
        <time>2010-11-22T12:26:26Z</time>
      </trkpt>
      <trkpt lat="43.68514" lon="6.73713">
        <ele>652</ele>
        <time>2010-11-22T12:26:43Z</time>
      </trkpt>
      <trkpt lat="43.68523" lon="6.73709">
        <ele>659</ele>
        <time>2010-11-22T12:27:00Z</time>
      </trkpt>
      <trkpt lat="43.68524" lon="6.73696">
        <ele>659</ele>
        <time>2010-11-22T12:27:15Z</time>
      </trkpt>
      <trkpt lat="43.6853" lon="6.73706">
        <ele>659</ele>
        <time>2010-11-22T12:28:32Z</time>
      </trkpt>
      <trkpt lat="43.68533" lon="6.73694">
        <ele>659</ele>
        <time>2010-11-22T12:29:37Z</time>
      </trkpt>
      <trkpt lat="43.6854" lon="6.73685">
        <ele>667</ele>
        <time>2010-11-22T12:29:55Z</time>
      </trkpt>
      <trkpt lat="43.68545" lon="6.73675">
        <ele>667</ele>
        <time>2010-11-22T12:30:12Z</time>
      </trkpt>
      <trkpt lat="43.68554" lon="6.73672">
        <ele>667</ele>
        <time>2010-11-22T12:30:29Z</time>
      </trkpt>
      <trkpt lat="43.68562" lon="6.73668">
        <ele>673</ele>
        <time>2010-11-22T12:30:56Z</time>
      </trkpt>
      <trkpt lat="43.68567" lon="6.73657">
        <ele>673</ele>
        <time>2010-11-22T12:31:19Z</time>
      </trkpt>
      <trkpt lat="43.68574" lon="6.73648">
        <ele>673</ele>
        <time>2010-11-22T12:32:02Z</time>
      </trkpt>
      <trkpt lat="43.68583" lon="6.73646">
        <ele>673</ele>
        <time>2010-11-22T12:32:48Z</time>
      </trkpt>
      <trkpt lat="43.6859" lon="6.73639">
        <ele>678</ele>
        <time>2010-11-22T12:33:09Z</time>
      </trkpt>
      <trkpt lat="43.68598" lon="6.73631">
        <ele>678</ele>
        <time>2010-11-22T12:33:44Z</time>
      </trkpt>
      <trkpt lat="43.68607" lon="6.73633">
        <ele>678</ele>
        <time>2010-11-22T12:34:10Z</time>
      </trkpt>
      <trkpt lat="43.68613" lon="6.73624">
        <ele>687</ele>
        <time>2010-11-22T12:34:30Z</time>
      </trkpt>
      <trkpt lat="43.6862" lon="6.73615">
        <ele>687</ele>
        <time>2010-11-22T12:34:58Z</time>
      </trkpt>
      <trkpt lat="43.68624" lon="6.73604">
        <ele>687</ele>
        <time>2010-11-22T12:37:14Z</time>
      </trkpt>
      <trkpt lat="43.68629" lon="6.73594">
        <ele>693</ele>
        <time>2010-11-22T12:37:47Z</time>
      </trkpt>
      <trkpt lat="43.68635" lon="6.73583">
        <ele>693</ele>
        <time>2010-11-22T12:38:09Z</time>
      </trkpt>
      <trkpt lat="43.68637" lon="6.73571">
        <ele>693</ele>
        <time>2010-11-22T12:38:33Z</time>
      </trkpt>
      <trkpt lat="43.6864" lon="6.7356">
        <ele>693</ele>
        <time>2010-11-22T12:38:48Z</time>
      </trkpt>
      <trkpt lat="43.68645" lon="6.7355">
        <ele>693</ele>
        <time>2010-11-22T12:39:04Z</time>
      </trkpt>
      <trkpt lat="43.68649" lon="6.73538">
        <ele>693</ele>
        <time>2010-11-22T12:39:20Z</time>
      </trkpt>
      <trkpt lat="43.68652" lon="6.73526">
        <ele>703</ele>
        <time>2010-11-22T12:39:37Z</time>
      </trkpt>
      <trkpt lat="43.68658" lon="6.73516">
        <ele>703</ele>
        <time>2010-11-22T12:39:53Z</time>
      </trkpt>
      <trkpt lat="43.68661" lon="6.73505">
        <ele>703</ele>
        <time>2010-11-22T12:40:17Z</time>
      </trkpt>
      <trkpt lat="43.68667" lon="6.73495">
        <ele>703</ele>
        <time>2010-11-22T12:40:32Z</time>
      </trkpt>
      <trkpt lat="43.68671" lon="6.73484">
        <ele>703</ele>
        <time>2010-11-22T12:40:47Z</time>
      </trkpt>
      <trkpt lat="43.68676" lon="6.73472">
        <ele>703</ele>
        <time>2010-11-22T12:41:02Z</time>
      </trkpt>
      <trkpt lat="43.68682" lon="6.73463">
        <ele>703</ele>
        <time>2010-11-22T12:41:17Z</time>
      </trkpt>
      <trkpt lat="43.68686" lon="6.73452">
        <ele>703</ele>
        <time>2010-11-22T12:41:32Z</time>
      </trkpt>
      <trkpt lat="43.6869" lon="6.7344">
        <ele>712</ele>
        <time>2010-11-22T12:41:49Z</time>
      </trkpt>
      <trkpt lat="43.68695" lon="6.7343">
        <ele>712</ele>
        <time>2010-11-22T12:42:05Z</time>
      </trkpt>
      <trkpt lat="43.68701" lon="6.7342">
        <ele>712</ele>
        <time>2010-11-22T12:42:22Z</time>
      </trkpt>
      <trkpt lat="43.68706" lon="6.7341">
        <ele>719</ele>
        <time>2010-11-22T12:42:49Z</time>
      </trkpt>
      <trkpt lat="43.68713" lon="6.73403">
        <ele>719</ele>
        <time>2010-11-22T12:43:06Z</time>
      </trkpt>
      <trkpt lat="43.68719" lon="6.73394">
        <ele>719</ele>
        <time>2010-11-22T12:43:20Z</time>
      </trkpt>
      <trkpt lat="43.68727" lon="6.73385">
        <ele>719</ele>
        <time>2010-11-22T12:43:34Z</time>
      </trkpt>
      <trkpt lat="43.6873" lon="6.73374">
        <ele>719</ele>
        <time>2010-11-22T12:43:46Z</time>
      </trkpt>
      <trkpt lat="43.68732" lon="6.73361">
        <ele>719</ele>
        <time>2010-11-22T12:43:56Z</time>
      </trkpt>
      <trkpt lat="43.68733" lon="6.73348">
        <ele>719</ele>
        <time>2010-11-22T12:44:06Z</time>
      </trkpt>
      <trkpt lat="43.68736" lon="6.73336">
        <ele>719</ele>
        <time>2010-11-22T12:44:16Z</time>
      </trkpt>
      <trkpt lat="43.6874" lon="6.73323">
        <ele>719</ele>
        <time>2010-11-22T12:44:28Z</time>
      </trkpt>
      <trkpt lat="43.68744" lon="6.73312">
        <ele>719</ele>
        <time>2010-11-22T12:44:38Z</time>
      </trkpt>
      <trkpt lat="43.68746" lon="6.73299">
        <ele>726</ele>
        <time>2010-11-22T12:44:48Z</time>
      </trkpt>
      <trkpt lat="43.68751" lon="6.73289">
        <ele>726</ele>
        <time>2010-11-22T12:45:00Z</time>
      </trkpt>
      <trkpt lat="43.68758" lon="6.7328">
        <ele>734</ele>
        <time>2010-11-22T12:45:14Z</time>
      </trkpt>
      <trkpt lat="43.68766" lon="6.73276">
        <ele>734</ele>
        <time>2010-11-22T12:45:25Z</time>
      </trkpt>
      <trkpt lat="43.68775" lon="6.73272">
        <ele>734</ele>
        <time>2010-11-22T12:45:37Z</time>
      </trkpt>
      <trkpt lat="43.68783" lon="6.73268">
        <ele>734</ele>
        <time>2010-11-22T12:45:47Z</time>
      </trkpt>
      <trkpt lat="43.6879" lon="6.73259">
        <ele>734</ele>
        <time>2010-11-22T12:46:02Z</time>
      </trkpt>
      <trkpt lat="43.68796" lon="6.7325">
        <ele>748</ele>
        <time>2010-11-22T12:46:19Z</time>
      </trkpt>
      <trkpt lat="43.68805" lon="6.73247">
        <ele>748</ele>
        <time>2010-11-22T12:46:35Z</time>
      </trkpt>
      <trkpt lat="43.68815" lon="6.73246">
        <ele>741</ele>
        <time>2010-11-22T12:49:21Z</time>
      </trkpt>
      <trkpt lat="43.68822" lon="6.73239">
        <ele>741</ele>
        <time>2010-11-22T12:51:01Z</time>
      </trkpt>
      <trkpt lat="43.68832" lon="6.73235">
        <ele>741</ele>
        <time>2010-11-22T12:51:21Z</time>
      </trkpt>
      <trkpt lat="43.68839" lon="6.73226">
        <ele>748</ele>
        <time>2010-11-22T12:51:39Z</time>
      </trkpt>
      <trkpt lat="43.68846" lon="6.73219">
        <ele>748</ele>
        <time>2010-11-22T12:52:10Z</time>
      </trkpt>
      <trkpt lat="43.68851" lon="6.73208">
        <ele>754</ele>
        <time>2010-11-22T12:52:23Z</time>
      </trkpt>
      <trkpt lat="43.6886" lon="6.73204">
        <ele>754</ele>
        <time>2010-11-22T12:52:35Z</time>
      </trkpt>
      <trkpt lat="43.68868" lon="6.73198">
        <ele>754</ele>
        <time>2010-11-22T12:52:47Z</time>
      </trkpt>
      <trkpt lat="43.68877" lon="6.73196">
        <ele>754</ele>
        <time>2010-11-22T12:52:58Z</time>
      </trkpt>
      <trkpt lat="43.68884" lon="6.73186">
        <ele>761</ele>
        <time>2010-11-22T12:53:10Z</time>
      </trkpt>
      <trkpt lat="43.68892" lon="6.73179">
        <ele>761</ele>
        <time>2010-11-22T12:53:22Z</time>
      </trkpt>
      <trkpt lat="43.68899" lon="6.73171">
        <ele>761</ele>
        <time>2010-11-22T12:53:33Z</time>
      </trkpt>
      <trkpt lat="43.68908" lon="6.73173">
        <ele>761</ele>
        <time>2010-11-22T12:53:44Z</time>
      </trkpt>
      <trkpt lat="43.68918" lon="6.73173">
        <ele>761</ele>
        <time>2010-11-22T12:53:53Z</time>
      </trkpt>
      <trkpt lat="43.68927" lon="6.73174">
        <ele>761</ele>
        <time>2010-11-22T12:54:04Z</time>
      </trkpt>
      <trkpt lat="43.68936" lon="6.73173">
        <ele>761</ele>
        <time>2010-11-22T12:54:12Z</time>
      </trkpt>
      <trkpt lat="43.6894" lon="6.73184">
        <ele>761</ele>
        <time>2010-11-22T12:54:22Z</time>
      </trkpt>
      <trkpt lat="43.68948" lon="6.7319">
        <ele>761</ele>
        <time>2010-11-22T12:54:33Z</time>
      </trkpt>
      <trkpt lat="43.68955" lon="6.73198">
        <ele>761</ele>
        <time>2010-11-22T12:54:44Z</time>
      </trkpt>
      <trkpt lat="43.68961" lon="6.73208">
        <ele>761</ele>
        <time>2010-11-22T12:54:54Z</time>
      </trkpt>
      <trkpt lat="43.68967" lon="6.7322">
        <ele>761</ele>
        <time>2010-11-22T12:55:03Z</time>
      </trkpt>
      <trkpt lat="43.68975" lon="6.73227">
        <ele>761</ele>
        <time>2010-11-22T12:55:10Z</time>
      </trkpt>
      <trkpt lat="43.68983" lon="6.73233">
        <ele>761</ele>
        <time>2010-11-22T12:55:18Z</time>
      </trkpt>
      <trkpt lat="43.68988" lon="6.73243">
        <ele>761</ele>
        <time>2010-11-22T12:55:29Z</time>
      </trkpt>
      <trkpt lat="43.68985" lon="6.73255">
        <ele>761</ele>
        <time>2010-11-22T12:55:37Z</time>
      </trkpt>
      <trkpt lat="43.68983" lon="6.73267">
        <ele>761</ele>
        <time>2010-11-22T12:55:46Z</time>
      </trkpt>
      <trkpt lat="43.68981" lon="6.73279">
        <ele>761</ele>
        <time>2010-11-22T12:55:55Z</time>
      </trkpt>
      <trkpt lat="43.68978" lon="6.73292">
        <ele>761</ele>
        <time>2010-11-22T12:56:06Z</time>
      </trkpt>
      <trkpt lat="43.68975" lon="6.73304">
        <ele>761</ele>
        <time>2010-11-22T12:56:15Z</time>
      </trkpt>
      <trkpt lat="43.68972" lon="6.73316">
        <ele>761</ele>
        <time>2010-11-22T12:56:24Z</time>
      </trkpt>
      <trkpt lat="43.68976" lon="6.73328">
        <ele>761</ele>
        <time>2010-11-22T12:56:35Z</time>
      </trkpt>
      <trkpt lat="43.68983" lon="6.73335">
        <ele>761</ele>
        <time>2010-11-22T12:56:44Z</time>
      </trkpt>
      <trkpt lat="43.68986" lon="6.73347">
        <ele>761</ele>
        <time>2010-11-22T12:56:53Z</time>
      </trkpt>
      <trkpt lat="43.68989" lon="6.73358">
        <ele>761</ele>
        <time>2010-11-22T12:57:03Z</time>
      </trkpt>
      <trkpt lat="43.68991" lon="6.73371">
        <ele>767</ele>
        <time>2010-11-22T12:57:22Z</time>
      </trkpt>
      <trkpt lat="43.68994" lon="6.73359">
        <ele>755</ele>
        <time>2010-11-22T12:57:54Z</time>
      </trkpt>
      <trkpt lat="43.68988" lon="6.73349">
        <ele>755</ele>
        <time>2010-11-22T12:58:02Z</time>
      </trkpt>
      <trkpt lat="43.68982" lon="6.73339">
        <ele>755</ele>
        <time>2010-11-22T12:58:11Z</time>
      </trkpt>
      <trkpt lat="43.68989" lon="6.73349">
        <ele>755</ele>
        <time>2010-11-22T12:58:48Z</time>
      </trkpt>
      <trkpt lat="43.68995" lon="6.7336">
        <ele>767</ele>
        <time>2010-11-22T12:58:57Z</time>
      </trkpt>
      <trkpt lat="43.68994" lon="6.73374">
        <ele>767</ele>
        <time>2010-11-22T12:59:05Z</time>
      </trkpt>
      <trkpt lat="43.6899" lon="6.73362">
        <ele>767</ele>
        <time>2010-11-22T13:01:29Z</time>
      </trkpt>
      <trkpt lat="43.68995" lon="6.73373">
        <ele>767</ele>
        <time>2010-11-22T13:03:48Z</time>
      </trkpt>
      <trkpt lat="43.68999" lon="6.73383">
        <ele>767</ele>
        <time>2010-11-22T13:03:58Z</time>
      </trkpt>
      <trkpt lat="43.69004" lon="6.73394">
        <ele>767</ele>
        <time>2010-11-22T13:04:10Z</time>
      </trkpt>
      <trkpt lat="43.69013" lon="6.73401">
        <ele>767</ele>
        <time>2010-11-22T13:04:19Z</time>
      </trkpt>
      <trkpt lat="43.69022" lon="6.73406">
        <ele>767</ele>
        <time>2010-11-22T13:04:26Z</time>
      </trkpt>
      <trkpt lat="43.6903" lon="6.73412">
        <ele>767</ele>
        <time>2010-11-22T13:04:36Z</time>
      </trkpt>
      <trkpt lat="43.69036" lon="6.73421">
        <ele>767</ele>
        <time>2010-11-22T13:04:46Z</time>
      </trkpt>
      <trkpt lat="43.69043" lon="6.7343">
        <ele>767</ele>
        <time>2010-11-22T13:04:56Z</time>
      </trkpt>
      <trkpt lat="43.69052" lon="6.73427">
        <ele>767</ele>
        <time>2010-11-22T13:05:04Z</time>
      </trkpt>
      <trkpt lat="43.69053" lon="6.73414">
        <ele>767</ele>
        <time>2010-11-22T13:05:13Z</time>
      </trkpt>
      <trkpt lat="43.69062" lon="6.73409">
        <ele>767</ele>
        <time>2010-11-22T13:05:24Z</time>
      </trkpt>
      <trkpt lat="43.69071" lon="6.73407">
        <ele>767</ele>
        <time>2010-11-22T13:05:34Z</time>
      </trkpt>
      <trkpt lat="43.69079" lon="6.73402">
        <ele>767</ele>
        <time>2010-11-22T13:05:44Z</time>
      </trkpt>
      <trkpt lat="43.69083" lon="6.73391">
        <ele>767</ele>
        <time>2010-11-22T13:05:55Z</time>
      </trkpt>
      <trkpt lat="43.69086" lon="6.73379">
        <ele>767</ele>
        <time>2010-11-22T13:06:05Z</time>
      </trkpt>
      <trkpt lat="43.69089" lon="6.73367">
        <ele>767</ele>
        <time>2010-11-22T13:06:16Z</time>
      </trkpt>
      <trkpt lat="43.6909" lon="6.73354">
        <ele>767</ele>
        <time>2010-11-22T13:06:28Z</time>
      </trkpt>
      <trkpt lat="43.69095" lon="6.73343">
        <ele>767</ele>
        <time>2010-11-22T13:06:39Z</time>
      </trkpt>
      <trkpt lat="43.69096" lon="6.7333">
        <ele>767</ele>
        <time>2010-11-22T13:06:52Z</time>
      </trkpt>
      <trkpt lat="43.69099" lon="6.73318">
        <ele>767</ele>
        <time>2010-11-22T13:07:02Z</time>
      </trkpt>
      <trkpt lat="43.69099" lon="6.73304">
        <ele>767</ele>
        <time>2010-11-22T13:07:14Z</time>
      </trkpt>
      <trkpt lat="43.69101" lon="6.73291">
        <ele>767</ele>
        <time>2010-11-22T13:07:25Z</time>
      </trkpt>
      <trkpt lat="43.69101" lon="6.73277">
        <ele>767</ele>
        <time>2010-11-22T13:07:36Z</time>
      </trkpt>
      <trkpt lat="43.69103" lon="6.73265">
        <ele>767</ele>
        <time>2010-11-22T13:07:54Z</time>
      </trkpt>
      <trkpt lat="43.69102" lon="6.73252">
        <ele>773</ele>
        <time>2010-11-22T13:08:06Z</time>
      </trkpt>
      <trkpt lat="43.69105" lon="6.73241">
        <ele>773</ele>
        <time>2010-11-22T13:08:17Z</time>
      </trkpt>
      <trkpt lat="43.69107" lon="6.73228">
        <ele>773</ele>
        <time>2010-11-22T13:08:29Z</time>
      </trkpt>
      <trkpt lat="43.69108" lon="6.73215">
        <ele>773</ele>
        <time>2010-11-22T13:08:42Z</time>
      </trkpt>
      <trkpt lat="43.69114" lon="6.73207">
        <ele>781</ele>
        <time>2010-11-22T13:09:06Z</time>
      </trkpt>
      <trkpt lat="43.69123" lon="6.73211">
        <ele>781</ele>
        <time>2010-11-22T13:09:49Z</time>
      </trkpt>
      <trkpt lat="43.69127" lon="6.73222">
        <ele>781</ele>
        <time>2010-11-22T13:09:58Z</time>
      </trkpt>
      <trkpt lat="43.69129" lon="6.73234">
        <ele>781</ele>
        <time>2010-11-22T13:10:07Z</time>
      </trkpt>
      <trkpt lat="43.6913" lon="6.73247">
        <ele>781</ele>
        <time>2010-11-22T13:10:17Z</time>
      </trkpt>
      <trkpt lat="43.69131" lon="6.7326">
        <ele>781</ele>
        <time>2010-11-22T13:10:26Z</time>
      </trkpt>
      <trkpt lat="43.69132" lon="6.73274">
        <ele>781</ele>
        <time>2010-11-22T13:10:35Z</time>
      </trkpt>
      <trkpt lat="43.69133" lon="6.73287">
        <ele>781</ele>
        <time>2010-11-22T13:10:46Z</time>
      </trkpt>
      <trkpt lat="43.69133" lon="6.73301">
        <ele>781</ele>
        <time>2010-11-22T13:10:56Z</time>
      </trkpt>
      <trkpt lat="43.69132" lon="6.73314">
        <ele>772</ele>
        <time>2010-11-22T13:11:06Z</time>
      </trkpt>
      <trkpt lat="43.69133" lon="6.73327">
        <ele>772</ele>
        <time>2010-11-22T13:11:16Z</time>
      </trkpt>
      <trkpt lat="43.69137" lon="6.73339">
        <ele>772</ele>
        <time>2010-11-22T13:11:27Z</time>
      </trkpt>
      <trkpt lat="43.69142" lon="6.73349">
        <ele>772</ele>
        <time>2010-11-22T13:11:36Z</time>
      </trkpt>
      <trkpt lat="43.69149" lon="6.73358">
        <ele>772</ele>
        <time>2010-11-22T13:11:45Z</time>
      </trkpt>
      <trkpt lat="43.69156" lon="6.73366">
        <ele>772</ele>
        <time>2010-11-22T13:11:57Z</time>
      </trkpt>
      <trkpt lat="43.69163" lon="6.73374">
        <ele>772</ele>
        <time>2010-11-22T13:12:08Z</time>
      </trkpt>
      <trkpt lat="43.69172" lon="6.7338">
        <ele>772</ele>
        <time>2010-11-22T13:12:19Z</time>
      </trkpt>
      <trkpt lat="43.69182" lon="6.73383">
        <ele>772</ele>
        <time>2010-11-22T13:12:28Z</time>
      </trkpt>
      <trkpt lat="43.69191" lon="6.73384">
        <ele>772</ele>
        <time>2010-11-22T13:12:37Z</time>
      </trkpt>
      <trkpt lat="43.69201" lon="6.73386">
        <ele>772</ele>
        <time>2010-11-22T13:12:47Z</time>
      </trkpt>
      <trkpt lat="43.6921" lon="6.73387">
        <ele>772</ele>
        <time>2010-11-22T13:12:57Z</time>
      </trkpt>
      <trkpt lat="43.69218" lon="6.73383">
        <ele>772</ele>
        <time>2010-11-22T13:13:09Z</time>
      </trkpt>
      <trkpt lat="43.69223" lon="6.73373">
        <ele>786</ele>
        <time>2010-11-22T13:13:19Z</time>
      </trkpt>
      <trkpt lat="43.69231" lon="6.73366">
        <ele>786</ele>
        <time>2010-11-22T13:13:28Z</time>
      </trkpt>
      <trkpt lat="43.69238" lon="6.73359">
        <ele>786</ele>
        <time>2010-11-22T13:13:38Z</time>
      </trkpt>
      <trkpt lat="43.69245" lon="6.7335">
        <ele>786</ele>
        <time>2010-11-22T13:13:50Z</time>
      </trkpt>
      <trkpt lat="43.6925" lon="6.73339">
        <ele>786</ele>
        <time>2010-11-22T13:14:00Z</time>
      </trkpt>
      <trkpt lat="43.69253" lon="6.73328">
        <ele>792</ele>
        <time>2010-11-22T13:14:10Z</time>
      </trkpt>
      <trkpt lat="43.69257" lon="6.73317">
        <ele>792</ele>
        <time>2010-11-22T13:14:20Z</time>
      </trkpt>
      <trkpt lat="43.69266" lon="6.73312">
        <ele>792</ele>
        <time>2010-11-22T13:14:30Z</time>
      </trkpt>
      <trkpt lat="43.69273" lon="6.73304">
        <ele>792</ele>
        <time>2010-11-22T13:14:40Z</time>
      </trkpt>
      <trkpt lat="43.69277" lon="6.73294">
        <ele>792</ele>
        <time>2010-11-22T13:14:53Z</time>
      </trkpt>
      <trkpt lat="43.69282" lon="6.73282">
        <ele>799</ele>
        <time>2010-11-22T13:15:04Z</time>
      </trkpt>
      <trkpt lat="43.69289" lon="6.73275">
        <ele>799</ele>
        <time>2010-11-22T13:15:13Z</time>
      </trkpt>
      <trkpt lat="43.69296" lon="6.73265">
        <ele>799</ele>
        <time>2010-11-22T13:15:24Z</time>
      </trkpt>
      <trkpt lat="43.69303" lon="6.73256">
        <ele>799</ele>
        <time>2010-11-22T13:15:34Z</time>
      </trkpt>
      <trkpt lat="43.6931" lon="6.73248">
        <ele>799</ele>
        <time>2010-11-22T13:15:44Z</time>
      </trkpt>
      <trkpt lat="43.69315" lon="6.73238">
        <ele>799</ele>
        <time>2010-11-22T13:15:58Z</time>
      </trkpt>
      <trkpt lat="43.6932" lon="6.73228">
        <ele>799</ele>
        <time>2010-11-22T13:16:11Z</time>
      </trkpt>
      <trkpt lat="43.69327" lon="6.73219">
        <ele>799</ele>
        <time>2010-11-22T13:16:37Z</time>
      </trkpt>
      <trkpt lat="43.69332" lon="6.73209">
        <ele>799</ele>
        <time>2010-11-22T13:16:50Z</time>
      </trkpt>
      <trkpt lat="43.69335" lon="6.73198">
        <ele>799</ele>
        <time>2010-11-22T13:17:01Z</time>
      </trkpt>
      <trkpt lat="43.69339" lon="6.73186">
        <ele>799</ele>
        <time>2010-11-22T13:17:13Z</time>
      </trkpt>
      <trkpt lat="43.69343" lon="6.73174">
        <ele>808</ele>
        <time>2010-11-22T13:17:24Z</time>
      </trkpt>
      <trkpt lat="43.6935" lon="6.73167">
        <ele>808</ele>
        <time>2010-11-22T13:17:34Z</time>
      </trkpt>
      <trkpt lat="43.69359" lon="6.73162">
        <ele>808</ele>
        <time>2010-11-22T13:17:44Z</time>
      </trkpt>
      <trkpt lat="43.69368" lon="6.73161">
        <ele>808</ele>
        <time>2010-11-22T13:17:53Z</time>
      </trkpt>
      <trkpt lat="43.69378" lon="6.73161">
        <ele>808</ele>
        <time>2010-11-22T13:18:04Z</time>
      </trkpt>
      <trkpt lat="43.69387" lon="6.73161">
        <ele>808</ele>
        <time>2010-11-22T13:18:15Z</time>
      </trkpt>
      <trkpt lat="43.69397" lon="6.73161">
        <ele>808</ele>
        <time>2010-11-22T13:18:25Z</time>
      </trkpt>
      <trkpt lat="43.69406" lon="6.73157">
        <ele>808</ele>
        <time>2010-11-22T13:18:36Z</time>
      </trkpt>
      <trkpt lat="43.69414" lon="6.73151">
        <ele>808</ele>
        <time>2010-11-22T13:18:46Z</time>
      </trkpt>
      <trkpt lat="43.69421" lon="6.73144">
        <ele>808</ele>
        <time>2010-11-22T13:18:55Z</time>
      </trkpt>
      <trkpt lat="43.69429" lon="6.73136">
        <ele>808</ele>
        <time>2010-11-22T13:19:04Z</time>
      </trkpt>
      <trkpt lat="43.69436" lon="6.73128">
        <ele>808</ele>
        <time>2010-11-22T13:19:14Z</time>
      </trkpt>
      <trkpt lat="43.69444" lon="6.7312">
        <ele>808</ele>
        <time>2010-11-22T13:19:24Z</time>
      </trkpt>
      <trkpt lat="43.69451" lon="6.73112">
        <ele>815</ele>
        <time>2010-11-22T13:19:33Z</time>
      </trkpt>
      <trkpt lat="43.69459" lon="6.73106">
        <ele>815</ele>
        <time>2010-11-22T13:19:43Z</time>
      </trkpt>
      <trkpt lat="43.69466" lon="6.73099">
        <ele>815</ele>
        <time>2010-11-22T13:19:51Z</time>
      </trkpt>
      <trkpt lat="43.69474" lon="6.73091">
        <ele>815</ele>
        <time>2010-11-22T13:19:59Z</time>
      </trkpt>
      <trkpt lat="43.69481" lon="6.73083">
        <ele>815</ele>
        <time>2010-11-22T13:20:08Z</time>
      </trkpt>
      <trkpt lat="43.69488" lon="6.73076">
        <ele>815</ele>
        <time>2010-11-22T13:20:17Z</time>
      </trkpt>
      <trkpt lat="43.69494" lon="6.73065">
        <ele>815</ele>
        <time>2010-11-22T13:20:28Z</time>
      </trkpt>
      <trkpt lat="43.69501" lon="6.73056">
        <ele>815</ele>
        <time>2010-11-22T13:20:37Z</time>
      </trkpt>
      <trkpt lat="43.69508" lon="6.73048">
        <ele>822</ele>
        <time>2010-11-22T13:20:46Z</time>
      </trkpt>
      <trkpt lat="43.69515" lon="6.73038">
        <ele>822</ele>
        <time>2010-11-22T13:20:55Z</time>
      </trkpt>
      <trkpt lat="43.69522" lon="6.7303">
        <ele>822</ele>
        <time>2010-11-22T13:21:04Z</time>
      </trkpt>
      <trkpt lat="43.69532" lon="6.73026">
        <ele>822</ele>
        <time>2010-11-22T13:21:12Z</time>
      </trkpt>
      <trkpt lat="43.69539" lon="6.7302">
        <ele>815</ele>
        <time>2010-11-22T13:21:21Z</time>
      </trkpt>
      <trkpt lat="43.69548" lon="6.73012">
        <ele>815</ele>
        <time>2010-11-22T13:21:30Z</time>
      </trkpt>
      <trkpt lat="43.69553" lon="6.73002">
        <ele>815</ele>
        <time>2010-11-22T13:21:40Z</time>
      </trkpt>
      <trkpt lat="43.69561" lon="6.72995">
        <ele>815</ele>
        <time>2010-11-22T13:21:48Z</time>
      </trkpt>
      <trkpt lat="43.69569" lon="6.72992">
        <ele>815</ele>
        <time>2010-11-22T13:21:56Z</time>
      </trkpt>
      <trkpt lat="43.69578" lon="6.72988">
        <ele>815</ele>
        <time>2010-11-22T13:22:05Z</time>
      </trkpt>
      <trkpt lat="43.69586" lon="6.72984">
        <ele>822</ele>
        <time>2010-11-22T13:22:13Z</time>
      </trkpt>
      <trkpt lat="43.69596" lon="6.7298">
        <ele>822</ele>
        <time>2010-11-22T13:22:21Z</time>
      </trkpt>
      <trkpt lat="43.69605" lon="6.72976">
        <ele>822</ele>
        <time>2010-11-22T13:22:33Z</time>
      </trkpt>
      <trkpt lat="43.69615" lon="6.72975">
        <ele>815</ele>
        <time>2010-11-22T13:22:42Z</time>
      </trkpt>
      <trkpt lat="43.69625" lon="6.72972">
        <ele>815</ele>
        <time>2010-11-22T13:22:49Z</time>
      </trkpt>
      <trkpt lat="43.69634" lon="6.72969">
        <ele>815</ele>
        <time>2010-11-22T13:22:57Z</time>
      </trkpt>
      <trkpt lat="43.69641" lon="6.72961">
        <ele>821</ele>
        <time>2010-11-22T13:23:07Z</time>
      </trkpt>
      <trkpt lat="43.69651" lon="6.7296">
        <ele>821</ele>
        <time>2010-11-22T13:23:22Z</time>
      </trkpt>
      <trkpt lat="43.69658" lon="6.72953">
        <ele>821</ele>
        <time>2010-11-22T13:23:36Z</time>
      </trkpt>
      <trkpt lat="43.69666" lon="6.72946">
        <ele>821</ele>
        <time>2010-11-22T13:23:44Z</time>
      </trkpt>
      <trkpt lat="43.69672" lon="6.72937">
        <ele>827</ele>
        <time>2010-11-22T13:23:52Z</time>
      </trkpt>
      <trkpt lat="43.69678" lon="6.72927">
        <ele>827</ele>
        <time>2010-11-22T13:24:01Z</time>
      </trkpt>
      <trkpt lat="43.69683" lon="6.72917">
        <ele>827</ele>
        <time>2010-11-22T13:24:11Z</time>
      </trkpt>
      <trkpt lat="43.69687" lon="6.72906">
        <ele>827</ele>
        <time>2010-11-22T13:24:20Z</time>
      </trkpt>
      <trkpt lat="43.69695" lon="6.72899">
        <ele>827</ele>
        <time>2010-11-22T13:24:27Z</time>
      </trkpt>
      <trkpt lat="43.69697" lon="6.72888">
        <ele>827</ele>
        <time>2010-11-22T13:24:36Z</time>
      </trkpt>
      <trkpt lat="43.69695" lon="6.72876">
        <ele>827</ele>
        <time>2010-11-22T13:24:46Z</time>
      </trkpt>
      <trkpt lat="43.69689" lon="6.72865">
        <ele>827</ele>
        <time>2010-11-22T13:24:56Z</time>
      </trkpt>
      <trkpt lat="43.6968" lon="6.72863">
        <ele>833</ele>
        <time>2010-11-22T13:25:19Z</time>
      </trkpt>
      <trkpt lat="43.69683" lon="6.72852">
        <ele>833</ele>
        <time>2010-11-22T13:25:37Z</time>
      </trkpt>
      <trkpt lat="43.69676" lon="6.72843">
        <ele>826</ele>
        <time>2010-11-22T13:26:32Z</time>
      </trkpt>
      <trkpt lat="43.6967" lon="6.72833">
        <ele>826</ele>
        <time>2010-11-22T13:26:42Z</time>
      </trkpt>
      <trkpt lat="43.69663" lon="6.72824">
        <ele>826</ele>
        <time>2010-11-22T13:26:50Z</time>
      </trkpt>
      <trkpt lat="43.69658" lon="6.72814">
        <ele>826</ele>
        <time>2010-11-22T13:26:59Z</time>
      </trkpt>
      <trkpt lat="43.69652" lon="6.72804">
        <ele>826</ele>
        <time>2010-11-22T13:27:07Z</time>
      </trkpt>
      <trkpt lat="43.69647" lon="6.72793">
        <ele>826</ele>
        <time>2010-11-22T13:27:18Z</time>
      </trkpt>
      <trkpt lat="43.69642" lon="6.72783">
        <ele>826</ele>
        <time>2010-11-22T13:27:26Z</time>
      </trkpt>
      <trkpt lat="43.69639" lon="6.72771">
        <ele>826</ele>
        <time>2010-11-22T13:27:36Z</time>
      </trkpt>
      <trkpt lat="43.69634" lon="6.72759">
        <ele>826</ele>
        <time>2010-11-22T13:27:44Z</time>
      </trkpt>
      <trkpt lat="43.69629" lon="6.72747">
        <ele>826</ele>
        <time>2010-11-22T13:27:54Z</time>
      </trkpt>
      <trkpt lat="43.69624" lon="6.72737">
        <ele>826</ele>
        <time>2010-11-22T13:28:10Z</time>
      </trkpt>
      <trkpt lat="43.69619" lon="6.72725">
        <ele>834</ele>
        <time>2010-11-22T13:30:11Z</time>
      </trkpt>
      <trkpt lat="43.69614" lon="6.72715">
        <ele>834</ele>
        <time>2010-11-22T13:30:22Z</time>
      </trkpt>
      <trkpt lat="43.69607" lon="6.72706">
        <ele>827</ele>
        <time>2010-11-22T13:30:34Z</time>
      </trkpt>
      <trkpt lat="43.69601" lon="6.72696">
        <ele>827</ele>
        <time>2010-11-22T13:30:43Z</time>
      </trkpt>
      <trkpt lat="43.69596" lon="6.72686">
        <ele>827</ele>
        <time>2010-11-22T13:30:52Z</time>
      </trkpt>
      <trkpt lat="43.69591" lon="6.72676">
        <ele>827</ele>
        <time>2010-11-22T13:31:01Z</time>
      </trkpt>
      <trkpt lat="43.69586" lon="6.72666">
        <ele>827</ele>
        <time>2010-11-22T13:31:10Z</time>
      </trkpt>
      <trkpt lat="43.6958" lon="6.72656">
        <ele>827</ele>
        <time>2010-11-22T13:31:19Z</time>
      </trkpt>
      <trkpt lat="43.69573" lon="6.72649">
        <ele>827</ele>
        <time>2010-11-22T13:31:26Z</time>
      </trkpt>
      <trkpt lat="43.69566" lon="6.72641">
        <ele>827</ele>
        <time>2010-11-22T13:31:33Z</time>
      </trkpt>
      <trkpt lat="43.69559" lon="6.72632">
        <ele>827</ele>
        <time>2010-11-22T13:31:40Z</time>
      </trkpt>
      <trkpt lat="43.69554" lon="6.72623">
        <ele>827</ele>
        <time>2010-11-22T13:31:47Z</time>
      </trkpt>
      <trkpt lat="43.69547" lon="6.72613">
        <ele>827</ele>
        <time>2010-11-22T13:31:55Z</time>
      </trkpt>
      <trkpt lat="43.69543" lon="6.72601">
        <ele>827</ele>
        <time>2010-11-22T13:32:04Z</time>
      </trkpt>
      <trkpt lat="43.69539" lon="6.72588">
        <ele>827</ele>
        <time>2010-11-22T13:32:12Z</time>
      </trkpt>
      <trkpt lat="43.69534" lon="6.72579">
        <ele>827</ele>
        <time>2010-11-22T13:32:24Z</time>
      </trkpt>
      <trkpt lat="43.69527" lon="6.7257">
        <ele>827</ele>
        <time>2010-11-22T13:32:32Z</time>
      </trkpt>
      <trkpt lat="43.69522" lon="6.72559">
        <ele>827</ele>
        <time>2010-11-22T13:32:40Z</time>
      </trkpt>
      <trkpt lat="43.69518" lon="6.72547">
        <ele>821</ele>
        <time>2010-11-22T13:32:48Z</time>
      </trkpt>
      <trkpt lat="43.69513" lon="6.72536">
        <ele>821</ele>
        <time>2010-11-22T13:32:57Z</time>
      </trkpt>
      <trkpt lat="43.69505" lon="6.72529">
        <ele>821</ele>
        <time>2010-11-22T13:33:04Z</time>
      </trkpt>
      <trkpt lat="43.69498" lon="6.72519">
        <ele>821</ele>
        <time>2010-11-22T13:33:12Z</time>
      </trkpt>
      <trkpt lat="43.69493" lon="6.72509">
        <ele>821</ele>
        <time>2010-11-22T13:33:19Z</time>
      </trkpt>
      <trkpt lat="43.69487" lon="6.72499">
        <ele>821</ele>
        <time>2010-11-22T13:33:26Z</time>
      </trkpt>
      <trkpt lat="43.69481" lon="6.72489">
        <ele>821</ele>
        <time>2010-11-22T13:33:34Z</time>
      </trkpt>
      <trkpt lat="43.69474" lon="6.72479">
        <ele>821</ele>
        <time>2010-11-22T13:33:42Z</time>
      </trkpt>
      <trkpt lat="43.69466" lon="6.72472">
        <ele>821</ele>
        <time>2010-11-22T13:33:49Z</time>
      </trkpt>
      <trkpt lat="43.69461" lon="6.72462">
        <ele>821</ele>
        <time>2010-11-22T13:33:57Z</time>
      </trkpt>
      <trkpt lat="43.69456" lon="6.72452">
        <ele>821</ele>
        <time>2010-11-22T13:34:05Z</time>
      </trkpt>
      <trkpt lat="43.69451" lon="6.72441">
        <ele>821</ele>
        <time>2010-11-22T13:34:14Z</time>
      </trkpt>
      <trkpt lat="43.69446" lon="6.72429">
        <ele>821</ele>
        <time>2010-11-22T13:34:23Z</time>
      </trkpt>
      <trkpt lat="43.6944" lon="6.72419">
        <ele>821</ele>
        <time>2010-11-22T13:34:30Z</time>
      </trkpt>
      <trkpt lat="43.69435" lon="6.72407">
        <ele>821</ele>
        <time>2010-11-22T13:34:38Z</time>
      </trkpt>
      <trkpt lat="43.69429" lon="6.72396">
        <ele>821</ele>
        <time>2010-11-22T13:34:45Z</time>
      </trkpt>
      <trkpt lat="43.69426" lon="6.72385">
        <ele>821</ele>
        <time>2010-11-22T13:34:53Z</time>
      </trkpt>
      <trkpt lat="43.69423" lon="6.72373">
        <ele>821</ele>
        <time>2010-11-22T13:35:00Z</time>
      </trkpt>
      <trkpt lat="43.69421" lon="6.7236">
        <ele>821</ele>
        <time>2010-11-22T13:35:07Z</time>
      </trkpt>
      <trkpt lat="43.69416" lon="6.72349">
        <ele>821</ele>
        <time>2010-11-22T13:35:16Z</time>
      </trkpt>
      <trkpt lat="43.69412" lon="6.72338">
        <ele>821</ele>
        <time>2010-11-22T13:35:24Z</time>
      </trkpt>
      <trkpt lat="43.69406" lon="6.72328">
        <ele>821</ele>
        <time>2010-11-22T13:35:32Z</time>
      </trkpt>
      <trkpt lat="43.69399" lon="6.72321">
        <ele>821</ele>
        <time>2010-11-22T13:35:39Z</time>
      </trkpt>
      <trkpt lat="43.69391" lon="6.72314">
        <ele>821</ele>
        <time>2010-11-22T13:35:46Z</time>
      </trkpt>
      <trkpt lat="43.69384" lon="6.72305">
        <ele>821</ele>
        <time>2010-11-22T13:35:53Z</time>
      </trkpt>
      <trkpt lat="43.69376" lon="6.72297">
        <ele>821</ele>
        <time>2010-11-22T13:36:01Z</time>
      </trkpt>
      <trkpt lat="43.69369" lon="6.72288">
        <ele>821</ele>
        <time>2010-11-22T13:36:09Z</time>
      </trkpt>
      <trkpt lat="43.69362" lon="6.72278">
        <ele>813</ele>
        <time>2010-11-22T13:36:17Z</time>
      </trkpt>
      <trkpt lat="43.69358" lon="6.72266">
        <ele>813</ele>
        <time>2010-11-22T13:36:26Z</time>
      </trkpt>
      <trkpt lat="43.69356" lon="6.72253">
        <ele>813</ele>
        <time>2010-11-22T13:36:34Z</time>
      </trkpt>
      <trkpt lat="43.69355" lon="6.72241">
        <ele>813</ele>
        <time>2010-11-22T13:36:43Z</time>
      </trkpt>
      <trkpt lat="43.69354" lon="6.72228">
        <ele>808</ele>
        <time>2010-11-22T13:36:50Z</time>
      </trkpt>
      <trkpt lat="43.69354" lon="6.72215">
        <ele>808</ele>
        <time>2010-11-22T13:36:59Z</time>
      </trkpt>
      <trkpt lat="43.69351" lon="6.72203">
        <ele>808</ele>
        <time>2010-11-22T13:37:07Z</time>
      </trkpt>
      <trkpt lat="43.69348" lon="6.7219">
        <ele>808</ele>
        <time>2010-11-22T13:37:14Z</time>
      </trkpt>
      <trkpt lat="43.69347" lon="6.72176">
        <ele>808</ele>
        <time>2010-11-22T13:37:22Z</time>
      </trkpt>
      <trkpt lat="43.69347" lon="6.72164">
        <ele>808</ele>
        <time>2010-11-22T13:37:29Z</time>
      </trkpt>
      <trkpt lat="43.69344" lon="6.72151">
        <ele>808</ele>
        <time>2010-11-22T13:37:38Z</time>
      </trkpt>
      <trkpt lat="43.69343" lon="6.72138">
        <ele>808</ele>
        <time>2010-11-22T13:37:47Z</time>
      </trkpt>
      <trkpt lat="43.69343" lon="6.72124">
        <ele>808</ele>
        <time>2010-11-22T13:37:55Z</time>
      </trkpt>
      <trkpt lat="43.69344" lon="6.72111">
        <ele>800</ele>
        <time>2010-11-22T13:38:04Z</time>
      </trkpt>
      <trkpt lat="43.69343" lon="6.72099">
        <ele>800</ele>
        <time>2010-11-22T13:38:13Z</time>
      </trkpt>
      <trkpt lat="43.69343" lon="6.72085">
        <ele>800</ele>
        <time>2010-11-22T13:38:22Z</time>
      </trkpt>
      <trkpt lat="43.69339" lon="6.72074">
        <ele>800</ele>
        <time>2010-11-22T13:38:30Z</time>
      </trkpt>
      <trkpt lat="43.69335" lon="6.72062">
        <ele>800</ele>
        <time>2010-11-22T13:38:36Z</time>
      </trkpt>
      <trkpt lat="43.69332" lon="6.72049">
        <ele>806</ele>
        <time>2010-11-22T13:38:43Z</time>
      </trkpt>
      <trkpt lat="43.69328" lon="6.72038">
        <ele>806</ele>
        <time>2010-11-22T13:38:52Z</time>
      </trkpt>
      <trkpt lat="43.69324" lon="6.72026">
        <ele>806</ele>
        <time>2010-11-22T13:39:00Z</time>
      </trkpt>
      <trkpt lat="43.69318" lon="6.72016">
        <ele>806</ele>
        <time>2010-11-22T13:39:08Z</time>
      </trkpt>
      <trkpt lat="43.69313" lon="6.72006">
        <ele>806</ele>
        <time>2010-11-22T13:39:16Z</time>
      </trkpt>
      <trkpt lat="43.69311" lon="6.71994">
        <ele>806</ele>
        <time>2010-11-22T13:39:31Z</time>
      </trkpt>
    </trkseg>
  </trk>
</gpx>